Return to Metar
SPECI CYNL 221459Z AUTO 02006KT 9SM BKN012 BKN045 03/01 A3014 RMK AO1 PRESRR SLP229
SPECI CYNL 221455Z AUTO 03007KT 9SM SCT013 BKN018 BKN045 03/01 A3014 RMK AO1 PRESRR SLP229
SPECI CYNL 221453Z AUTO 02007KT 9SM BKN013 BKN044 03/01 A3014 RMK AO1 PRESRR SLP229
SPECI CYNL 221452Z AUTO 02006KT 9SM SCT012 BKN016 BKN044 03/01 A3014 RMK AO1 PRESRR SLP229
SPECI CYNL 221428Z AUTO 03007KT 9SM FEW010 BKN014 OVC044 03/01 A3013 RMK AO1 PRESRR SLP226
SPECI CYNL 221427Z AUTO 04008KT 9SM FEW009 SCT013 BKN016 03/01 A3013 RMK AO1 PRESRR SLP226
SPECI CYNL 221412Z AUTO 05006KT 9SM SCT009 OVC014 03/01 A3013 RMK AO1 PRESRR SLP225
METAR CYNL 221400Z AUTO 03007KT 9SM OVC009 03/01 A3012 RMK AO1 PRESRR SLP221
METAR CYNL 221300Z AUTO 01006KT 9SM OVC009 02/01 A3009 RMK AO1 SLP213
SPECI CYNL 221247Z AUTO 01009KT 9SM BKN009 BKN012 02/01 A3009 RMK AO1 SLP211
SPECI CYNL 221246Z AUTO 00009KT 9SM SCT009 BKN011 02/01 A3009 RMK AO1 SLP211
METAR CYNL 221200Z AUTO 35011KT 9SM OVC006 02/02 A3009 RMK AO1 SLP212
METAR CYNL 221100Z AUTO 00007KT 9SM OVC007 02/02 A3008 RMK AO1 SLP207
METAR CYNL 221000Z AUTO 35006KT 9SM OVC006 02/02 A3007 RMK AO1 PRESRR SLP203
SPECI CYNL 220914Z AUTO 00007KT 3SM BKN007 OVC011 02/02 A3005 RMK AO1 SLP196
SPECI CYNL 220909Z AUTO 00008KT 2SM FEW005 OVC007 02/02 A3005 RMK AO1 SLP195
SPECI CYNL 220908Z AUTO 00008KT 1 3/4SM FEW005 OVC007 02/02 A3005 RMK AO1 SLP195
SPECI CYNL 220904Z AUTO 00008KT 1 1/4SM FEW004 BKN007 OVC010 03/02 A3004 RMK AO1 SLP195
SPECI CYNL 220903Z AUTO 00008KT 1 3/4SM FEW004 BKN007 OVC010 03/02 A3004 RMK AO1 SLP195
METAR CYNL 220900Z AUTO 35006KT 9SM FEW004 BKN007 OVC010 03/02 A3004 RMK AO1 SLP194
SPECI CYNL 220854Z AUTO 35007KT 4SM VV008 02/02 A3004 RMK AO1 PRESRR SLP193
SPECI CYNL 220853Z AUTO 35007KT 2 1/2SM VV008 02/02 A3004 RMK AO1 PRESRR SLP193
SPECI CYNL 220852Z AUTO 34007KT 1 3/4SM VV007 02/02 A3004 RMK AO1 PRESRR SLP193
SPECI CYNL 220851Z AUTO 35007KT 1SM VV007 02/02 A3004 RMK AO1 PRESRR SLP193
SPECI CYNL 220850Z AUTO 35007KT 3/4SM VV006 02/02 A3004 RMK AO1 PRESRR SLP193
SPECI CYNL 220845Z AUTO 34007KT 5/8SM VV006 02/02 A3004 RMK AO1 PRESRR SLP193
SPECI CYNL 220844Z AUTO 34008KT 3/4SM VV006 02/02 A3004 RMK AO1 PRESRR SLP193
SPECI CYNL 220837Z AUTO 34006KT 1SM FEW005 BKN008 OVC011 02/02 A3004 RMK AO1 PRESRR SLP192
SPECI CYNL 220836Z AUTO 34007KT 1SM SCT005 OVC011 02/02 A3004 RMK AO1 PRESRR SLP192
SPECI CYNL 220835Z AUTO 34007KT 1 1/2SM FEW005 SCT007 OVC011 02/02 A3004 RMK AO1 PRESRR SLP192
SPECI CYNL 220828Z AUTO 34007KT 9SM SCT006 OVC011 02/02 A3003 RMK AO1 PRESRR SLP191
SPECI CYNL 220825Z AUTO 34007KT 3SM BKN006 OVC011 02/02 A3003 RMK AO1 PRESRR SLP190
SPECI CYNL 220824Z AUTO 35008KT 2SM SCT006 BKN008 BKN010 02/02 A3003 RMK AO1 PRESRR SLP190
SPECI CYNL 220820Z AUTO 35008KT 2 1/2SM BKN006 BKN009 OVC017 02/02 A3003 RMK AO1 PRESRR SLP190
METAR CYNL 220800Z AUTO 35008KT 6SM BKN006 OVC012 02/02 A3003 RMK AO1 PRESRR SLP189
SPECI CYNL 220750Z AUTO 35008KT 6SM BKN006 OVC012 02/02 A3002 RMK AO1 PRESRR SLP187
SPECI CYNL 220746Z AUTO 34006KT 9SM SCT006 OVC012 02/02 A3002 RMK AO1 PRESRR SLP187
SPECI CYNL 220745Z AUTO 35008KT 9SM VV012 02/02 A3002 RMK AO1 PRESRR SLP187
SPECI CYNL 220744Z AUTO 35008KT 9SM SCT006 BKN008 OVC012 02/02 A3002 RMK AO1 PRESRR SLP186
SPECI CYNL 220743Z AUTO 34006KT 9SM VV011 02/02 A3002 RMK AO1 PRESRR SLP186
SPECI CYNL 220719Z AUTO 35007KT 3SM SCT005 BKN007 OVC010 02/02 A3001 RMK AO1 PRESRR SLP184
SPECI CYNL 220716Z AUTO 35006KT 2SM BKN006 OVC010 02/02 A3001 RMK AO1 PRESRR SLP183
SPECI CYNL 220714Z AUTO 35008KT 1 3/4SM SCT005 BKN007 OVC011 02/02 A3001 RMK AO1 PRESRR SLP183
SPECI CYNL 220713Z AUTO 34008KT 2SM BKN006 OVC010 02/02 A3001 RMK AO1 PRESRR SLP183
SPECI CYNL 220712Z AUTO 34007KT 1 3/4SM BKN006 OVC010 02/02 A3001 RMK AO1 PRESRR SLP183
SPECI CYNL 220710Z AUTO 34007KT 2 1/2SM BKN007 OVC010 02/02 A3001 RMK AO1 PRESRR SLP183
METAR CYNL 220700Z AUTO 35008G15KT 9SM FEW005 BKN007 OVC010 02/02 A3001 RMK AO1 PRESRR SLP182
SPECI CYNL 220653Z AUTO 35008G15KT 3SM SCT005 BKN008 OVC010 02/02 A3000 RMK AO1 SLP181
SPECI CYNL 220652Z AUTO 35010G15KT 2 1/2SM SCT005 BKN009 OVC011 02/02 A3000 RMK AO1 SLP181
SPECI CYNL 220649Z AUTO 35009KT 3SM SCT005 BKN008 OVC011 02/02 A3000 RMK AO1 SLP181
SPECI CYNL 220647Z AUTO 34007KT 2SM SCT005 BKN008 OVC011 02/02 A3000 RMK AO1 SLP181
SPECI CYNL 220646Z AUTO 35007KT 1 3/4SM SCT006 BKN008 OVC011 02/02 A3000 RMK AO1 SLP181
SPECI CYNL 220642Z AUTO 35009KT 1SM VV008 02/02 A3000 RMK AO1 SLP181
SPECI CYNL 220640Z AUTO 35009KT 1 1/2SM SCT006 OVC010 02/02 A3000 RMK AO1 SLP180
SPECI CYNL 220632Z AUTO 35007KT 1 1/4SM SCT006 OVC010 02/02 A3000 RMK AO1 SLP179
SPECI CYNL 220629Z AUTO 00008KT 1 1/2SM SCT006 OVC010 02/02 A3000 RMK AO1 SLP178
SPECI CYNL 220624Z AUTO 00009KT 1 1/4SM VV010 02/02 A2999 RMK AO1 SLP178
SPECI CYNL 220623Z AUTO 00009KT 1 3/4SM SCT006 OVC010 02/02 A2999 RMK AO1 SLP177
SPECI CYNL 220619Z AUTO 00008G16KT 2 1/2SM SCT006 OVC010 02/02 A2999 RMK AO1 SLP177
SPECI CYNL 220611Z AUTO 00010G16KT 3SM SCT006 OVC010 02/02 A2999 RMK AO1 SLP176
SPECI CYNL 220610Z AUTO 00010G16KT 2 1/2SM SCT006 OVC010 02/02 A2999 RMK AO1 SLP176
SPECI CYNL 220609Z AUTO 00010G16KT 2 1/2SM SCT006 BKN009 OVC011 02/02 A2999 RMK AO1 SLP175
SPECI CYNL 220608Z AUTO 00010G16KT 2SM SCT006 OVC011 02/02 A2999 RMK AO1 SLP175
SPECI CYNL 220606Z AUTO 00009KT 1 3/4SM SCT006 OVC010 02/02 A2999 RMK AO1 SLP175
SPECI CYNL 220603Z AUTO 00009KT 2 1/2SM SCT006 OVC010 02/02 A2999 RMK AO1 SLP175
SPECI CYNL 220602Z AUTO 00009KT 2 1/2SM SCT006 BKN009 OVC010 02/02 A2999 RMK AO1 SLP175
METAR CYNL 220600Z AUTO 00008KT 4SM SCT006 BKN008 OVC010 02/02 A2998 RMK AO1 SLP174
SPECI CYNL 220559Z AUTO 00008KT 4SM SCT006 OVC010 02/02 A2998 RMK AO1 SLP174
SPECI CYNL 220558Z AUTO 00008KT 3SM SCT006 OVC009 02/02 A2998 RMK AO1 SLP174
SPECI CYNL 220554Z AUTO 00009KT 2 1/2SM SCT006 BKN008 OVC010 02/02 A2998 RMK AO1 SLP174
SPECI CYNL 220553Z AUTO 35008KT 3SM SCT006 BKN008 OVC010 03/02 A2998 RMK AO1 SLP174
SPECI CYNL 220552Z AUTO 00009KT 3SM VV010 03/02 A2998 RMK AO1 SLP173
SPECI CYNL 220550Z AUTO 00010KT 3SM SCT006 OVC008 02/02 A2998 RMK AO1 SLP173
SPECI CYNL 220549Z AUTO 00010KT 2SM SCT006 OVC008 02/02 A2998 RMK AO1 SLP173
SPECI CYNL 220548Z AUTO 35007KT 1 1/2SM VV008 02/02 A2998 RMK AO1 SLP173
SPECI CYNL 220534Z AUTO 00009KT 1 1/4SM SCT005 OVC008 03/02 A2998 RMK AO1 SLP172
SPECI CYNL 220531Z AUTO 35008KT 1 1/2SM VV007 03/02 A2998 RMK AO1 SLP171
SPECI CYNL 220528Z AUTO 00007KT 1SM VV008 03/02 A2998 RMK AO1 SLP171
SPECI CYNL 220526Z AUTO 00009KT 3/4SM VV007 03/02 A2997 RMK AO1 SLP171
SPECI CYNL 220524Z AUTO 35009KT 1SM VV007 03/02 A2997 RMK AO1 SLP171
SPECI CYNL 220522Z AUTO 35009KT 3/4SM VV007 03/02 A2997 RMK AO1 SLP170
SPECI CYNL 220512Z AUTO 00009KT 1SM SCT005 BKN009 OVC011 03/02 A2997 RMK AO1 SLP169
SPECI CYNL 220510Z AUTO 00008KT 1 1/4SM FEW005 OVC010 03/02 A2997 RMK AO1 SLP169
SPECI CYNL 220506Z AUTO 00010KT 1SM VV009 03/02 A2997 RMK AO1 SLP169
SPECI CYNL 220505Z AUTO 01011KT 1 1/4SM VV010 03/02 A2997 RMK AO1 SLP169
SPECI CYNL 220504Z AUTO 00010KT 1 1/2SM VV009 03/02 A2997 RMK AO1 SLP169
SPECI CYNL 220502Z AUTO 00009KT 1 1/2SM VV010 03/02 A2997 RMK AO1 SLP168
SPECI CYNL 220501Z AUTO 00008KT 1 3/4SM VV009 03/02 A2997 RMK AO1 SLP168
METAR CYNL 220500Z AUTO 00009KT 2SM VV009 03/02 A2997 RMK AO1 SLP168
SPECI CYNL 220454Z AUTO 35008KT 1 1/2SM VV009 03/02 A2997 RMK AO1 SLP168
SPECI CYNL 220452Z AUTO 00007KT 1 3/4SM VV010 03/02 A2997 RMK AO1 SLP168
SPECI CYNL 220451Z AUTO 00008KT 1 3/4SM VV009 03/02 A2997 RMK AO1 SLP168
SPECI CYNL 220448Z AUTO 00007G15KT 1 1/2SM SCT006 OVC010 03/02 A2997 RMK AO1 SLP168
SPECI CYNL 220447Z AUTO 00006G15KT 1 1/2SM SCT006 BKN009 OVC011 03/02 A2997 RMK AO1 SLP168
SPECI CYNL 220446Z AUTO 00007G15KT 1 1/4SM SCT006 BKN009 OVC011 03/02 A2997 RMK AO1 SLP168
SPECI CYNL 220441Z AUTO 00010KT 1 1/2SM SCT006 OVC010 03/02 A2996 RMK AO1 SLP168
SPECI CYNL 220440Z AUTO 01010KT 1 1/4SM SCT006 OVC010 03/02 A2996 RMK AO1 SLP168
SPECI CYNL 220438Z AUTO 00008G15KT 1 1/4SM SCT006 BKN009 OVC011 03/02 A2996 RMK AO1 SLP167
SPECI CYNL 220432Z AUTO 01008KT 1 1/4SM SCT007 OVC010 03/02 A2996 RMK AO1 SLP167
SPECI CYNL 220431Z AUTO 01009KT 1 1/2SM VV009 03/02 A2996 RMK AO1 SLP167
SPECI CYNL 220429Z AUTO 00009KT 1 3/4SM SCT006 OVC010 03/02 A2996 RMK AO1 SLP167
SPECI CYNL 220424Z AUTO 00008KT 1 1/4SM SCT007 OVC011 03/02 A2996 RMK AO1 SLP166
SPECI CYNL 220418Z AUTO 00007KT 1 3/4SM SCT007 OVC011 03/02 A2996 RMK AO1 SLP165
SPECI CYNL 220416Z AUTO 00009KT 2 1/2SM SCT007 OVC011 03/02 A2996 RMK AO1 SLP165
SPECI CYNL 220413Z AUTO 01009KT 4SM FEW006 SCT008 OVC011 03/02 A2996 RMK AO1 SLP165
SPECI CYNL 220411Z AUTO 00007KT 2SM VV011 03/02 A2996 RMK AO1 SLP165
SPECI CYNL 220410Z AUTO 00007KT 1 1/2SM VV011 03/02 A2996 RMK AO1 SLP165
SPECI CYNL 220406Z AUTO 00009KT 1 1/4SM VV010 03/02 A2996 RMK AO1 SLP164
SPECI CYNL 220401Z AUTO 00009KT 1 3/4SM BKN006 OVC011 03/02 A2995 RMK AO1 SLP164
METAR CYNL 220400Z AUTO 00008KT 2SM BKN006 OVC011 03/02 A2995 RMK AO1 SLP163
SPECI CYNL 220355Z AUTO 00009KT 2 1/2SM BKN006 OVC011 03/02 A2995 RMK AO1 SLP163
SPECI CYNL 220354Z AUTO 00010KT 2SM SCT006 OVC011 03/02 A2995 RMK AO1 SLP163
SPECI CYNL 220353Z AUTO 00009KT 1 3/4SM SCT006 BKN008 OVC011 03/02 A2995 RMK AO1 SLP163
SPECI CYNL 220345Z AUTO 00008G15KT 2 1/2SM BKN006 OVC012 03/02 A2995 RMK AO1 SLP163
SPECI CYNL 220343Z AUTO 00010G15KT 3SM BKN006 OVC012 03/02 A2995 RMK AO1 SLP163
SPECI CYNL 220342Z AUTO 00011KT 2SM BKN006 OVC012 03/02 A2995 RMK AO1 SLP163
SPECI CYNL 220341Z AUTO 00011KT 1 1/2SM BKN007 OVC012 03/02 A2995 RMK AO1 SLP162
SPECI CYNL 220340Z AUTO 00010KT 1 1/4SM BKN007 OVC012 03/02 A2995 RMK AO1 SLP162
SPECI CYNL 220336Z AUTO 00009G15KT 1 3/4SM SCT007 BKN009 OVC012 03/02 A2994 RMK AO1 SLP161
SPECI CYNL 220333Z AUTO 00011KT 1 1/2SM SCT007 OVC012 03/02 A2994 RMK AO1 SLP161
SPECI CYNL 220330Z AUTO 00009G16KT 1 3/4SM VV012 03/02 A2994 RMK AO1 SLP160
SPECI CYNL 220328Z AUTO 00012KT 2 1/2SM VV012 03/02 A2994 RMK AO1 SLP160
SPECI CYNL 220325Z AUTO 00009G16KT 4SM SCT007 BKN010 OVC012 03/02 A2994 RMK AO1 SLP160
SPECI CYNL 220311Z AUTO 00012KT 4SM SCT007 BKN009 OVC013 03/02 A2994 RMK AO1 SLP160
SPECI CYNL 220310Z AUTO 00012KT 3SM SCT007 BKN010 OVC013 03/02 A2994 RMK AO1 SLP160
METAR CYNL 220300Z AUTO 00008G17KT 6SM BKN008 OVC012 03/02 A2994 RMK AO1 SLP159
METAR CYNL 220200Z AUTO 00012G20KT 9SM BKN009 OVC012 03/02 A2993 RMK AO1 PRESRR SLP155
SPECI CYNL 220142Z AUTO 00012G18KT 9SM BKN009 OVC012 03/02 A2992 RMK AO1 SLP153
SPECI CYNL 220140Z AUTO 00012G18KT 9SM SCT009 OVC012 03/02 A2992 RMK AO1 SLP153
SPECI CYNL 220139Z AUTO 00013KT 9SM BKN009 OVC012 03/02 A2992 RMK AO1 SLP153
SPECI CYNL 220135Z AUTO 00012G18KT 9SM SCT009 OVC013 03/02 A2992 RMK AO1 SLP152
SPECI CYNL 220133Z AUTO 00011G18KT 9SM BKN009 OVC013 03/02 A2991 RMK AO1 SLP152
SPECI CYNL 220110Z AUTO 00011G18KT 7SM FEW009 BKN014 OVC021 03/02 A2991 RMK AO1 SLP149
SPECI CYNL 220104Z AUTO 00014KT 9SM FEW009 SCT012 BKN015 03/02 A2991 RMK AO1 SLP148
METAR CYNL 220100Z AUTO 00009G18KT 6SM VV015 03/02 A2990 RMK AO1 SLP148
SPECI CYNL 220058Z AUTO 00011G18KT 4SM VV015 03/02 A2990 RMK AO1 SLP147
SPECI CYNL 220057Z AUTO 00011G18KT 3SM VV014 03/02 A2990 RMK AO1 PRESRR SLP147
SPECI CYNL 220049Z AUTO 00013G19KT 4SM FEW009 SCT011 BKN015 03/02 A2990 RMK AO1 PRESRR SLP146
SPECI CYNL 220041Z AUTO 00012G18KT 5SM VV015 03/02 A2990 RMK AO1 PRESRR SLP145
SPECI CYNL 220004Z AUTO 00009KT 3SM FEW008 OVC013 04/03 A2988 RMK AO1 PRESRR SLP140
SPECI CYNL 220001Z AUTO 00009KT 2 1/2SM FEW009 OVC013 04/03 A2988 RMK AO1 PRESRR SLP140
METAR CYNL 220000Z AUTO 00009KT 4SM FEW009 OVC013 04/03 A2988 RMK AO1 PRESRR SLP139
SPECI CYNL 212339Z AUTO 35010G17KT 7SM FEW009 BKN014 BKN019 04/03 A2988 RMK AO1 PRESRR SLP138
SPECI CYNL 212335Z AUTO 00011G17KT 5SM VV014 04/03 A2987 RMK AO1 PRESRR SLP137
SPECI CYNL 212331Z AUTO 00011G17KT 3SM SCT012 BKN017 04/03 A2987 RMK AO1 PRESRR SLP136
SPECI CYNL 212330Z AUTO 00012G17KT 2 1/2SM FEW011 SCT013 BKN017 04/03 A2987 RMK AO1 PRESRR SLP136
SPECI CYNL 212316Z AUTO 00013G19KT 7SM FEW009 BKN018 04/03 A2986 RMK AO1 PRESRR SLP133
SPECI CYNL 212305Z AUTO 00012G23KT 3SM VV018 04/03 A2986 RMK AO1 PRESRR SLP131
SPECI CYNL 212304Z AUTO 00013G23KT 2SM FEW011 BKN016 04/03 A2986 RMK AO1 PRESRR SLP131
SPECI CYNL 212302Z AUTO 00016G23KT 1 3/4SM FEW011 BKN016 04/03 A2986 RMK AO1 PRESRR SLP131
METAR CYNL 212300Z AUTO 00013G20KT 4SM FEW011 SCT015 BKN018 04/03 A2986 RMK AO1 PRESRR SLP130
SPECI CYNL 212246Z AUTO 00014G20KT 3SM FEW009 SCT012 BKN017 04/03 A2985 RMK AO1 PRESRR SLP127
SPECI CYNL 212243Z AUTO 00012G20KT 2SM FEW008 SCT011 BKN014 04/03 A2985 RMK AO1 PRESRR SLP127
SPECI CYNL 212216Z AUTO 00014G21KT 4SM SCT008 BKN011 05/03 A2984 RMK AO1 PRESRR SLP124
SPECI CYNL 212215Z AUTO 00013G20KT 2 1/2SM FEW007 BKN011 05/03 A2984 RMK AO1 PRESRR SLP124
SPECI CYNL 212214Z AUTO 00012G20KT 1 1/2SM FEW007 BKN011 05/04 A2984 RMK AO1 PRESRR SLP123
SPECI CYNL 212212Z AUTO 00010G18KT 1 1/4SM FEW009 SCT011 BKN016 05/03 A2984 RMK AO1 PRESRR SLP123
SPECI CYNL 212211Z AUTO 00011G18KT 1 1/2SM FEW008 SCT011 BKN016 05/03 A2984 RMK AO1 PRESRR SLP123
SPECI CYNL 212204Z AUTO 01012G24KT 9SM FEW008 BKN018 05/03 A2983 RMK AO1 PRESRR SLP121
METAR CYNL 212200Z AUTO 00012G24KT 9SM SCT012 BKN017 04/03 A2983 RMK AO1 PRESRR SLP122
SPECI CYNL 212159Z AUTO 01015G24KT 7SM FEW008 SCT012 BKN017 04/03 A2983 RMK AO1 PRESRR SLP122
SPECI CYNL 212158Z AUTO 01015G24KT 4SM VV015 04/03 A2983 RMK AO1 PRESRR SLP122
SPECI CYNL 212157Z AUTO 00014KT 2 1/2SM VV015 04/03 A2983 RMK AO1 PRESRR SLP122
SPECI CYNL 212153Z AUTO 01014KT 1 3/4SM FEW008 SCT013 BKN018 04/03 A2983 RMK AO1 PRESRR SLP121
SPECI CYNL 212152Z AUTO 00013G18KT 2 1/2SM FEW008 BKN014 BKN018 04/03 A2983 RMK AO1 PRESRR SLP121
SPECI CYNL 212151Z AUTO 00011G18KT 6SM FEW008 SCT013 BKN018 05/03 A2983 RMK AO1 PRESRR SLP121
SPECI CYNL 212148Z AUTO 00010G17KT 5SM FEW007 BKN014 BKN019 05/03 A2983 RMK AO1 PRESRR SLP121
SPECI CYNL 212147Z AUTO 00011G17KT 3SM VV014 04/03 A2983 RMK AO1 PRESRR SLP121
SPECI CYNL 212145Z AUTO 01011G17KT 2SM VV017 05/03 A2983 RMK AO1 PRESRR SLP121
SPECI CYNL 212143Z AUTO 01013KT 1 3/4SM VV017 05/03 A2983 RMK AO1 PRESRR SLP121
SPECI CYNL 212142Z AUTO 01012KT 2SM FEW011 BKN015 BKN019 05/03 A2983 RMK AO1 PRESRR SLP121
SPECI CYNL 212141Z AUTO 01011G17KT 3SM FEW012 BKN017 OVC200 05/03 A2983 RMK AO1 PRESRR SLP121
SPECI CYNL 212140Z AUTO 02011G17KT 3SM BKN014 BKN019 05/03 A2983 RMK AO1 PRESRR SLP121
SPECI CYNL 212136Z AUTO 01010G17KT 3SM BKN015 05/03 A2983 RMK AO1 PRESRR SLP120
SPECI CYNL 212135Z AUTO 01010G17KT 2SM VV015 05/04 A2982 RMK AO1 PRESRR SLP120
SPECI CYNL 212134Z AUTO 02009G17KT 1 1/4SM VV014 05/03 A2982 RMK AO1 PRESRR SLP119
SPECI CYNL 212133Z AUTO 01009G17KT 1 1/2SM VV014 05/03 A2982 RMK AO1 PRESRR SLP119
SPECI CYNL 212129Z AUTO 02012G22KT 1 3/4SM VV016 05/03 A2982 RMK AO1 PRESRR SLP118
SPECI CYNL 212127Z AUTO 01011G22KT 2 1/2SM VV016 05/03 A2982 RMK AO1 PRESRR SLP118
SPECI CYNL 212119Z AUTO 01011G19KT 4SM VV017 05/03 A2982 RMK AO1 PRESRR SLP118
SPECI CYNL 212117Z AUTO 00012G20KT 2SM VV017 05/03 A2982 RMK AO1 PRESRR SLP117
SPECI CYNL 212116Z AUTO 01011G20KT 1 3/4SM FEW013 BKN019 05/03 A2982 RMK AO1 PRESRR SLP118
SPECI CYNL 212115Z AUTO 00012G20KT 2 1/2SM FEW013 BKN018 05/03 A2982 RMK AO1 PRESRR SLP117
SPECI CYNL 212101Z AUTO 02013G19KT 3SM FEW009 SCT013 OVC018 05/03 A2981 RMK AO1 PRESRR SLP115
METAR CYNL 212100Z AUTO 02013G19KT 3SM VV019 05/03 A2981 RMK AO1 PRESRR SLP115
SPECI CYNL 212054Z AUTO 01010G22KT 4SM FEW009 BKN015 OVC020 05/03 A2981 RMK AO1 SLP114
SPECI CYNL 212053Z AUTO 01012G22KT 4SM FEW010 BKN013 OVC018 05/03 A2981 RMK AO1 SLP114
SPECI CYNL 212052Z AUTO 01014G22KT 6SM FEW010 SCT013 BKN016 05/03 A2981 RMK AO1 SLP114
SPECI CYNL 212050Z AUTO 01011G22KT 9SM FEW009 SCT011 BKN014 05/03 A2981 RMK AO1 SLP114
SPECI CYNL 212040Z AUTO 00012KT 8SM SCT010 BKN014 OVC210 05/03 A2980 RMK AO1 SLP112
SPECI CYNL 212023Z AUTO 01011G19KT 9SM FEW009 BKN015 05/03 A2980 RMK AO1 SLP111
SPECI CYNL 212020Z AUTO 01014KT 5SM FEW009 BKN014 OVC170 05/03 A2980 RMK AO1 SLP110
SPECI CYNL 212019Z AUTO 01014G19KT 3SM VV014 05/03 A2980 RMK AO1 SLP110
SPECI CYNL 212017Z AUTO 35013G19KT 2 1/2SM FEW009 BKN014 05/03 A2980 RMK AO1 SLP109
SPECI CYNL 212014Z AUTO 01012G19KT 3SM FEW009 BKN014 05/03 A2979 RMK AO1 SLP109
SPECI CYNL 212012Z AUTO 00013G19KT 3SM SCT010 BKN015 05/03 A2979 RMK AO1 SLP108
SPECI CYNL 212002Z AUTO 00014G20KT 8SM FEW009 BKN012 BKN017 05/03 A2979 RMK AO1 SLP108
METAR CYNL 212000Z AUTO 00013G20KT 9SM BKN011 BKN017 05/03 A2979 RMK AO1 SLP107
SPECI CYNL 211949Z AUTO 02014G22KT 9SM SCT011 BKN013 BKN160 05/03 A2979 RMK AO1 SLP106
SPECI CYNL 211948Z AUTO 01014G22KT 9SM SCT011 BKN016 05/03 A2979 RMK AO1 SLP106
SPECI CYNL 211943Z AUTO 00014G22KT 3SM BKN012 BKN016 05/03 A2978 RMK AO1 SLP105
SPECI CYNL 211942Z AUTO 00014G22KT 4SM SCT012 BKN016 05/03 A2978 RMK AO1 SLP105
SPECI CYNL 211934Z AUTO 01011G21KT 9SM FEW009 BKN014 05/03 A2978 RMK AO1 SLP104
SPECI CYNL 211933Z AUTO 01014G22KT 9SM FEW009 BKN015 05/03 A2978 RMK AO1 SLP104
SPECI CYNL 211923Z AUTO 02016G22KT 4SM FEW009 BKN014 OVC019 05/03 A2978 RMK AO1 SLP103
SPECI CYNL 211922Z AUTO 02016G21KT 5SM FEW009 SCT011 BKN015 05/03 A2978 RMK AO1 SLP103
SPECI CYNL 211919Z AUTO 02014G21KT 6SM VV016 05/03 A2978 RMK AO1 SLP103
SPECI CYNL 211918Z AUTO 01014G21KT 5SM FEW009 SCT011 BKN014 05/03 A2978 RMK AO1 SLP103
SPECI CYNL 211917Z AUTO 02013G21KT 4SM SCT009 OVC015 05/03 A2978 RMK AO1 SLP103
SPECI CYNL 211916Z AUTO 01011G19KT 3SM SCT009 BKN014 OVC019 05/03 A2978 RMK AO1 SLP103
SPECI CYNL 211915Z AUTO 01013G19KT 2SM SCT009 BKN011 BKN014 05/03 A2977 RMK AO1 SLP102
SPECI CYNL 211914Z AUTO 00014G19KT 1 3/4SM SCT009 BKN011 BKN014 05/03 A2977 RMK AO1 SLP102
SPECI CYNL 211912Z AUTO 01014KT 2 1/2SM SCT009 BKN011 OVC014 05/03 A2977 RMK AO1 SLP102
METAR CYNL 211900Z AUTO 02013G23KT 5SM FEW008 SCT012 BKN014 05/03 A2977 RMK AO1 SLP101
SPECI CYNL 211858Z AUTO 01017G23KT 3SM FEW008 SCT011 BKN014 04/03 A2977 RMK AO1 SLP101
SPECI CYNL 211852Z AUTO 01014KT 2SM FEW007 BKN012 OVC020 04/03 A2977 RMK AO1 PRESRR SLP101
SPECI CYNL 211851Z AUTO 01013KT 1 1/2SM FEW008 BKN013 OVC020 04/03 A2977 RMK AO1 PRESRR SLP101
SPECI CYNL 211850Z AUTO 01013KT 1 1/4SM FEW008 BKN014 OVC020 04/03 A2977 RMK AO1 PRESRR SLP101
SPECI CYNL 211849Z AUTO 00013KT 1 3/4SM FEW008 BKN014 OVC020 04/03 A2977 RMK AO1 PRESRR SLP100
SPECI CYNL 211846Z AUTO 02011G21KT 2 1/2SM FEW008 BKN015 OVC021 04/03 A2977 RMK AO1 PRESRR SLP100
SPECI CYNL 211844Z AUTO 01010G21KT 3SM FEW008 BKN015 BKN020 04/03 A2977 RMK AO1 PRESRR SLP099
SPECI CYNL 211841Z AUTO 02012G21KT 2 1/2SM FEW009 BKN015 BKN020 04/03 A2977 RMK AO1 PRESRR SLP099
SPECI CYNL 211823Z AUTO 01014G23KT 3SM FEW008 SCT011 OVC015 04/03 A2976 RMK AO1 PRESRR SLP097
SPECI CYNL 211822Z AUTO 01016KT 2 1/2SM FEW008 SCT011 OVC015 04/03 A2976 RMK AO1 PRESRR SLP097
SPECI CYNL 211819Z AUTO 01012G20KT 4SM FEW008 SCT011 OVC015 04/03 A2976 RMK AO1 PRESRR SLP097
SPECI CYNL 211817Z AUTO 01011G21KT 4SM FEW008 BKN011 OVC015 04/03 A2976 RMK AO1 PRESRR SLP097
SPECI CYNL 211815Z AUTO 01013G24KT 7SM BKN011 OVC015 04/03 A2976 RMK AO1 PRESRR SLP097
SPECI CYNL 211813Z AUTO 02013G24KT 5SM SCT011 OVC015 04/03 A2976 RMK AO1 PRESRR SLP096
SPECI CYNL 211812Z AUTO 03014G24KT 4SM BKN011 OVC015 04/02 A2976 RMK AO1 PRESRR SLP096
SPECI CYNL 211811Z AUTO 02014G24KT 5SM SCT011 OVC015 04/03 A2976 RMK AO1 PRESRR SLP096
SPECI CYNL 211810Z AUTO 02014G24KT 4SM BKN011 OVC015 04/02 A2976 RMK AO1 PRESRR SLP096
SPECI CYNL 211809Z AUTO 01015G24KT 4SM SCT011 BKN015 04/02 A2975 RMK AO1 PRESRR SLP096
METAR CYNL 211800Z AUTO 01016G21KT 8SM BKN011 BKN015 OVC200 04/02 A2975 RMK AO1 PRESRR SLP095
SPECI CYNL 211747Z AUTO 01011G21KT 9SM BKN011 04/03 A2975 RMK AO1 SLP092
SPECI CYNL 211746Z AUTO 01013G21KT 8SM SCT011 BKN015 04/03 A2975 RMK AO1 SLP092
SPECI CYNL 211745Z AUTO 02015G21KT 7SM BKN011 04/02 A2974 RMK AO1 SLP092
SPECI CYNL 211736Z AUTO 01014G22KT 9SM SCT011 BKN016 04/03 A2974 RMK AO1 SLP091
SPECI CYNL 211735Z AUTO 01014G22KT 9SM BKN011 04/02 A2974 RMK AO1 SLP091
SPECI CYNL 211732Z AUTO 01010G22KT 9SM SCT010 BKN015 04/03 A2974 RMK AO1 SLP091
SPECI CYNL 211731Z AUTO 02013G22KT 9SM SCT010 BKN013 04/03 A2974 RMK AO1 SLP090
SPECI CYNL 211729Z AUTO 01011G22KT 9SM SCT010 BKN015 04/03 A2974 RMK AO1 SLP091
SPECI CYNL 211728Z AUTO 02014G22KT 9SM SCT010 BKN014 04/02 A2974 RMK AO1 SLP090
SPECI CYNL 211725Z AUTO 01012G20KT 9SM SCT010 BKN015 04/03 A2974 RMK AO1 SLP090
SPECI CYNL 211723Z AUTO 02014G21KT 9SM BKN011 04/02 A2974 RMK AO1 SLP090
SPECI CYNL 211721Z AUTO 01012G21KT 9SM SCT011 BKN015 04/03 A2974 RMK AO1 SLP090
SPECI CYNL 211711Z AUTO 01012G19KT 9SM BKN010 04/03 A2973 RMK AO1 SLP088
SPECI CYNL 211710Z AUTO 01011G19KT 9SM SCT010 BKN015 04/03 A2973 RMK AO1 SLP088
SPECI CYNL 211709Z AUTO 01011G19KT 9SM BKN011 04/03 A2973 RMK AO1 SLP088
SPECI CYNL 211703Z AUTO 02014G23KT 9SM SCT011 BKN015 04/02 A2973 RMK AO1 SLP087
METAR CYNL 211700Z AUTO 01014G23KT 9SM SCT012 BKN210 04/02 A2973 RMK AO1 SLP087
SPECI CYNL 211626Z AUTO 01016G21KT 7SM FEW010 SCT013 BKN220 04/02 A2972 RMK AO1 PRESRR SLP084
SPECI CYNL 211625Z AUTO 01015G20KT 7SM FEW010 SCT013 BKN017 04/02 A2972 RMK AO1 PRESRR SLP084
SPECI CYNL 211620Z AUTO 01013G22KT 9SM BKN013 04/02 A2972 RMK AO1 PRESRR SLP084
SPECI CYNL 211607Z AUTO 01014G22KT 7SM SCT013 03/02 A2972 RMK AO1 PRESRR SLP084
METAR CYNL 211600Z AUTO 01015G22KT 6SM BKN013 03/02 A2972 RMK AO1 PRESRR SLP084
SPECI CYNL 211558Z AUTO 01014KT 7SM BKN013 03/02 A2972 RMK AO1 PRESRR SLP084
SPECI CYNL 211549Z AUTO 01013G21KT 7SM SCT013 03/02 A2972 RMK AO1 SLP083
SPECI CYNL 211538Z AUTO 02011G19KT 7SM FEW009 BKN013 03/02 A2971 RMK AO1 SLP081
SPECI CYNL 211536Z AUTO 01010G21KT 7SM FEW009 SCT013 BKN015 03/02 A2971 RMK AO1 SLP081
METAR CYNL 211500Z AUTO 01010G18KT 6SM FEW008 BKN013 OVC240 03/02 A2970 RMK AO1 SLP077
METAR CYNL 211400Z AUTO 01014KT 6SM FEW009 BKN013 BKN017 03/02 A2968 RMK AO1 PRESRR SLP072
SPECI CYNL 211319Z AUTO 01013G21KT 6SM FEW008 SCT010 BKN013 03/02 A2967 RMK AO1 PRESRR SLP067
SPECI CYNL 211318Z AUTO 01014G21KT 6SM FEW008 SCT010 OVC015 03/02 A2967 RMK AO1 PRESRR SLP067
SPECI CYNL 211317Z AUTO 01014G21KT 6SM FEW008 SCT010 BKN014 03/02 A2967 RMK AO1 PRESRR SLP067
METAR CYNL 211300Z AUTO 02016G22KT 5SM FEW009 OVC015 03/02 A2966 RMK AO1 PRESRR SLP064
SPECI CYNL 211253Z AUTO 02016G22KT 7SM SCT009 BKN015 03/02 A2966 RMK AO1 SLP063
SPECI CYNL 211241Z AUTO 02013G24KT 7SM FEW009 BKN013 03/02 A2966 RMK AO1 SLP062
SPECI CYNL 211239Z AUTO 02014G24KT 6SM VV015 03/02 A2966 RMK AO1 SLP062
SPECI CYNL 211204Z AUTO 01012G22KT 5SM FEW008 BKN013 OVC018 03/02 A2964 RMK AO1 SLP058
METAR CYNL 211200Z AUTO 02014G22KT 5SM VV013 03/02 A2964 RMK AO1 SLP057
SPECI CYNL 211107Z AUTO 02011G23KT 3SM FEW009 BKN013 OVC018 03/02 A2962 RMK AO1 SLP051
METAR CYNL 211100Z AUTO 02014G25KT 5SM VV015 03/02 A2962 RMK AO1 SLP050
SPECI CYNL 211047Z AUTO 02014G26KT 4SM FEW009 BKN014 OVC018 03/02 A2962 RMK AO1 SLP049
SPECI CYNL 211040Z AUTO 02015G26KT 5SM VV015 03/02 A2962 RMK AO1 SLP049
METAR CYNL 211000Z AUTO 02013G20KT 4SM FEW009 BKN012 03/02 A2960 RMK AO1 SLP045
SPECI CYNL 210953Z AUTO 01012G20KT 5SM FEW009 BKN012 03/02 A2960 RMK AO1 SLP044
METAR CYNL 210900Z AUTO 02018G26KT 4SM VV012 03/01 A2959 RMK AO1 SLP041
SPECI CYNL 210804Z AUTO 02013G19KT 4SM FEW008 OVC012 03/02 A2958 RMK AO1 SLP036
METAR CYNL 210800Z AUTO 02012G21KT 4SM VV012 03/02 A2958 RMK AO1 SLP036
SPECI CYNL 210736Z AUTO 02010G20KT 4SM SCT008 BKN011 OVC013 03/02 A2958 RMK AO1 SLP035
SPECI CYNL 210734Z AUTO 02015KT 4SM BKN009 OVC012 03/02 A2958 RMK AO1 SLP035
SPECI CYNL 210709Z AUTO 03012G19KT 4SM FEW008 OVC012 03/02 A2958 RMK AO1 SLP034
METAR CYNL 210700Z AUTO 02013G24KT 3SM VV011 03/02 A2957 RMK AO1 SLP033
SPECI CYNL 210632Z AUTO 04016G22KT 4SM FEW008 OVC012 03/02 A2957 RMK AO1 SLP031
SPECI CYNL 210625Z AUTO 03014G26KT 3SM VV012 03/02 A2957 RMK AO1 SLP031
SPECI CYNL 210619Z AUTO 04017G27KT 2 1/2SM VV013 03/02 A2957 RMK AO1 SLP030
SPECI CYNL 210614Z AUTO 03017G27KT 3SM FEW010 BKN013 OVC018 03/02 A2956 RMK AO1 SLP030
SPECI CYNL 210613Z AUTO 04018G27KT 3SM FEW009 SCT012 OVC018 03/02 A2956 RMK AO1 SLP030
SPECI CYNL 210612Z AUTO 04020G27KT 3SM FEW009 BKN013 OVC018 03/02 A2956 RMK AO1 SLP030
SPECI CYNL 210611Z AUTO 04022KT 3SM FEW010 BKN013 BKN018 03/02 A2956 RMK AO1 SLP030
SPECI CYNL 210610Z AUTO 04020G25KT 3SM FEW010 SCT012 BKN015 03/02 A2956 RMK AO1 SLP029
SPECI CYNL 210609Z AUTO 04018G25KT 4SM FEW010 BKN013 BKN018 03/02 A2956 RMK AO1 SLP030
SPECI CYNL 210607Z AUTO 03011G23KT 5SM FEW010 SCT012 BKN015 03/02 A2957 RMK AO1 SLP030
SPECI CYNL 210606Z AUTO 03010G25KT 4SM SCT010 BKN014 OVC018 03/02 A2957 RMK AO1 SLP030
SPECI CYNL 210605Z AUTO 03013G25KT 4SM SCT010 OVC018 04/02 A2957 RMK AO1 SLP030
SPECI CYNL 210604Z AUTO 03014G25KT 4SM SCT011 BKN014 BKN018 04/02 A2957 RMK AO1 SLP030
METAR CYNL 210600Z AUTO 04013G25KT 5SM SCT011 BKN018 04/02 A2957 RMK AO1 SLP030
SPECI CYNL 210547Z AUTO 04018G25KT 4SM FEW004 SCT011 BKN015 04/02 A2956 RMK AO1 SLP029
SPECI CYNL 210527Z AUTO 03019G26KT 4SM FEW004 BKN013 BKN019 04/02 A2956 RMK AO1 SLP029
SPECI CYNL 210507Z AUTO 04014G24KT 6SM SCT010 BKN014 04/02 A2956 RMK AO1 SLP029
SPECI CYNL 210506Z AUTO 03015G25KT 6SM SCT010 BKN017 04/02 A2956 RMK AO1 SLP029
METAR CYNL 210500Z AUTO 04017G25KT 5SM SCT010 BKN014 04/02 A2956 RMK AO1 SLP029
SPECI CYNL 210458Z AUTO 04015G25KT 5SM SCT010 BKN014 04/02 A2956 RMK AO1 SLP029
SPECI CYNL 210450Z AUTO 04014G27KT 5SM SCT011 BKN017 04/02 A2956 RMK AO1 SLP029
SPECI CYNL 210449Z AUTO 04016G27KT 4SM SCT011 BKN014 04/02 A2956 RMK AO1 SLP029
SPECI CYNL 210448Z AUTO 04018G27KT 5SM SCT011 BKN017 04/02 A2956 RMK AO1 SLP029
SPECI CYNL 210446Z AUTO 04017G27KT 5SM FEW009 SCT011 04/02 A2956 RMK AO1 SLP029
SPECI CYNL 210445Z AUTO 04015G25KT 5SM FEW009 SCT011 BKN014 04/02 A2956 RMK AO1 SLP029
SPECI CYNL 210437Z AUTO 04016G26KT 4SM SCT011 BKN018 04/02 A2956 RMK AO1 SLP028
SPECI CYNL 210436Z AUTO 04019G26KT 5SM SCT011 BKN014 04/02 A2956 RMK AO1 SLP027
SPECI CYNL 210408Z AUTO 04019G27KT 5SM SCT011 BKN015 04/02 A2956 RMK AO1 SLP027
METAR CYNL 210400Z AUTO 05017G26KT 6SM SCT010 BKN014 04/02 A2956 RMK AO1 SLP027
SPECI CYNL 210355Z AUTO 04018G24KT 5SM FEW010 BKN013 04/02 A2956 RMK AO1 SLP026
SPECI CYNL 210354Z AUTO 04017G24KT 5SM FEW010 SCT013 BKN015 04/02 A2956 RMK AO1 SLP027
SPECI CYNL 210352Z AUTO 04017G24KT 5SM FEW009 BKN012 04/02 A2956 RMK AO1 SLP027
SPECI CYNL 210345Z AUTO 03019G27KT 6SM SCT010 BKN014 04/02 A2955 RMK AO1 SLP026
SPECI CYNL 210344Z AUTO 03016G27KT 6SM SCT011 BKN015 04/02 A2955 RMK AO1 SLP026
SPECI CYNL 210339Z AUTO 04020G27KT 5SM BKN011 OVC015 04/02 A2956 RMK AO1 SLP026
SPECI CYNL 210338Z AUTO 04016G25KT 5SM SCT011 OVC015 04/02 A2956 RMK AO1 SLP026
SPECI CYNL 210325Z AUTO 04020G29KT 4SM BKN011 OVC016 04/02 A2956 RMK AO1 SLP026
SPECI CYNL 210324Z AUTO 03017G22KT 5SM SCT011 OVC015 04/02 A2956 RMK AO1 SLP026
SPECI CYNL 210323Z AUTO 03016G22KT 5SM BKN011 OVC016 04/02 A2956 RMK AO1 SLP026
SPECI CYNL 210322Z AUTO 03016G22KT 5SM SCT011 OVC015 04/02 A2956 RMK AO1 SLP026
SPECI CYNL 210309Z AUTO 04019G25KT 4SM SCT010 BKN014 OVC017 04/02 A2955 RMK AO1 SLP026
SPECI CYNL 210307Z AUTO 04017G24KT 4SM SCT010 OVC015 04/02 A2956 RMK AO1 SLP027
METAR CYNL 210300Z AUTO 04015G26KT 4SM FEW009 BKN013 BKN016 04/02 A2956 RMK AO1 SLP027
SPECI CYNL 210247Z AUTO 03015G26KT 4SM FEW009 OVC014 04/02 A2955 RMK AO1 SLP026
SPECI CYNL 210244Z AUTO 04019G26KT 3SM VV015 04/02 A2956 RMK AO1 SLP026
SPECI CYNL 210242Z AUTO 04018G26KT 3SM VV014 04/02 A2955 RMK AO1 SLP026
SPECI CYNL 210234Z AUTO 04018G27KT 2SM SCT009 BKN013 OVC016 04/02 A2956 RMK AO1 SLP027
SPECI CYNL 210232Z AUTO 04016G27KT 1 3/4SM SCT009 BKN013 OVC016 04/02 A2956 RMK AO1 SLP027
SPECI CYNL 210218Z AUTO 04020KT 2SM FEW009 BKN013 OVC017 04/02 A2956 RMK AO1 SLP027
SPECI CYNL 210217Z AUTO 04020G25KT 1 3/4SM FEW009 OVC013 04/02 A2956 RMK AO1 SLP027
SPECI CYNL 210211Z AUTO 04020G29KT 2 1/2SM SCT009 OVC014 04/02 A2956 RMK AO1 SLP026
SPECI CYNL 210209Z AUTO 03018G29KT 2SM SCT010 OVC014 04/02 A2955 RMK AO1 SLP026
SPECI CYNL 210206Z AUTO 04019G29KT 2SM VV015 04/02 A2956 RMK AO1 SLP027
SPECI CYNL 210204Z AUTO 04018G29KT 2 1/2SM SCT010 BKN014 04/02 A2955 RMK AO1 SLP026
SPECI CYNL 210201Z AUTO 04021G27KT 3SM SCT010 BKN014 04/02 A2955 RMK AO1 SLP026
METAR CYNL 210200Z AUTO 04019G27KT 2 1/2SM SCT010 BKN014 04/02 A2956 RMK AO1 SLP026
METAR CYNL 210100Z AUTO 04015G25KT 4SM BKN011 OVC015 04/02 A2956 RMK AO1 SLP027
SPECI CYNL 210051Z AUTO 04016G27KT 3SM SCT009 OVC013 04/02 A2956 RMK AO1 SLP027
SPECI CYNL 210044Z AUTO 05017G28KT 2 1/2SM FEW009 BKN011 OVC015 04/02 A2956 RMK AO1 SLP026
SPECI CYNL 210038Z AUTO 04022G31KT 2 1/2SM BKN010 OVC015 04/02 A2955 RMK AO1 SLP025
SPECI CYNL 210037Z AUTO 04020G31KT 3SM BKN010 OVC015 04/02 A2956 RMK AO1 SLP025
SPECI CYNL 210035Z AUTO 04020G31KT 3SM BKN009 BKN012 OVC015 04/02 A2956 RMK AO1 SLP025
METAR CYNL 210000Z AUTO 04020G28KT 6SM BKN010 BKN013 OVC016 04/02 A2956 RMK AO1 SLP026
SPECI CYNL 202334Z AUTO 04018G26KT 3SM FEW008 BKN012 OVC016 04/03 A2955 RMK AO1 SLP024
SPECI CYNL 202327Z AUTO 04016G26KT 2SM FEW008 SCT011 OVC014 04/03 A2955 RMK AO1 SLP024
SPECI CYNL 202324Z AUTO 05017G26KT 1 3/4SM FEW008 BKN012 OVC016 04/03 A2955 RMK AO1 SLP023
SPECI CYNL 202323Z AUTO 05019G26KT 2SM FEW008 BKN012 OVC016 04/03 A2955 RMK AO1 SLP023
SPECI CYNL 202318Z AUTO 04014G33KT 1 3/4SM FEW008 BKN012 OVC016 04/03 A2955 RMK AO1 SLP023
SPECI CYNL 202317Z AUTO 04016G33KT 2SM FEW008 BKN011 OVC016 04/03 A2955 RMK AO1 SLP023
SPECI CYNL 202311Z AUTO 05020G33KT 2 1/2SM BKN011 OVC017 04/02 A2955 RMK AO1 SLP022
SPECI CYNL 202308Z AUTO 05020G30KT 3SM BKN010 OVC017 04/03 A2955 RMK AO1 SLP022
METAR CYNL 202300Z AUTO 04018G29KT 2SM BKN010 BKN012 OVC016 04/03 A2955 RMK AO1 SLP023
SPECI CYNL 202249Z AUTO 04018G31KT 2 1/2SM BKN010 BKN012 OVC016 04/03 A2955 RMK AO1 SLP022
SPECI CYNL 202248Z AUTO 05018G31KT 2 1/2SM BKN009 BKN012 OVC016 04/03 A2955 RMK AO1 SLP021
SPECI CYNL 202247Z AUTO 05019G31KT 3SM BKN009 BKN012 OVC015 04/03 A2954 RMK AO1 SLP021
SPECI CYNL 202245Z AUTO 04025G31KT 2 1/2SM BKN009 BKN012 OVC015 04/02 A2954 RMK AO1 SLP020
SPECI CYNL 202242Z AUTO 04023G31KT 3SM BKN010 BKN013 OVC016 04/03 A2954 RMK AO1 SLP020
SPECI CYNL 202226Z AUTO 04027G35KT 2 1/2SM BKN011 OVC014 04/02 A2953 RMK AO1 SLP017
SPECI CYNL 202209Z AUTO 03019G30KT 3SM BKN010 OVC014 04/03 A2954 RMK AO1 SLP018
SPECI CYNL 202204Z AUTO 04021G30KT 2 1/2SM BKN010 OVC014 04/03 A2954 RMK AO1 SLP018
SPECI CYNL 202202Z AUTO 04022G32KT 3SM BKN010 OVC013 04/03 A2954 RMK AO1 SLP018
METAR CYNL 202200Z AUTO 04021G32KT 2 1/2SM BKN010 OVC013 04/03 A2954 RMK AO1 SLP018
SPECI CYNL 202146Z AUTO 04018G31KT 3SM FEW008 BKN010 OVC014 04/03 A2954 RMK AO1 SLP018
SPECI CYNL 202144Z AUTO 04019G31KT 4SM BKN009 BKN011 OVC014 04/03 A2954 RMK AO1 SLP018
SPECI CYNL 202139Z AUTO 04019G30KT 4SM SCT008 BKN011 OVC014 04/03 A2953 RMK AO1 SLP016
SPECI CYNL 202138Z AUTO 04020G30KT 4SM BKN009 BKN011 OVC014 04/03 A2953 RMK AO1 SLP016
SPECI CYNL 202137Z AUTO 04022G30KT 4SM SCT008 BKN011 OVC014 04/03 A2953 RMK AO1 SLP016
SPECI CYNL 202127Z AUTO 04021G32KT 3SM BKN009 OVC012 04/03 A2953 RMK AO1 SLP016
SPECI CYNL 202122Z AUTO 04018G29KT 2 1/2SM BKN009 BKN012 OVC014 05/03 A2954 RMK AO1 SLP016
SPECI CYNL 202117Z AUTO 04018G29KT 2 1/2SM SCT009 OVC012 05/03 A2954 RMK AO1 SLP017
SPECI CYNL 202114Z AUTO 04020G27KT 3SM SCT009 BKN011 OVC014 05/03 A2954 RMK AO1 SLP017
SPECI CYNL 202113Z AUTO 04020G27KT 2 1/2SM SCT009 BKN011 OVC014 05/03 A2954 RMK AO1 SLP017
SPECI CYNL 202110Z AUTO 04016G29KT 3SM SCT009 OVC013 05/03 A2954 RMK AO1 SLP017
METAR CYNL 202100Z AUTO 04017G33KT 2 1/2SM FEW009 OVC012 05/03 A2954 RMK AO1 SLP017
SPECI CYNL 202057Z AUTO 05018G33KT 3SM FEW009 OVC012 05/03 A2954 RMK AO1 PRESFR SLP017
SPECI CYNL 202054Z AUTO 04021G33KT 2 1/2SM SCT009 BKN012 OVC017 05/03 A2954 RMK AO1 PRESFR SLP017
SPECI CYNL 202047Z AUTO 04017G25KT 3SM SCT009 OVC013 04/03 A2954 RMK AO1 PRESFR SLP019
SPECI CYNL 202045Z AUTO 04014G25KT 2 1/2SM SCT009 OVC013 04/03 A2954 RMK AO1 PRESFR SLP019
SPECI CYNL 202036Z AUTO 04017G27KT 3SM FEW008 BKN012 OVC015 04/03 A2954 RMK AO1 PRESFR SLP019
SPECI CYNL 202029Z AUTO 04021G30KT 3SM BKN010 OVC014 04/03 A2954 RMK AO1 PRESFR SLP018
SPECI CYNL 202006Z AUTO 04022G28KT 2 1/2SM SCT009 BKN012 OVC014 05/03 A2954 RMK AO1 PRESFR SLP019
SPECI CYNL 202005Z AUTO 04021G28KT 2 1/2SM BKN009 OVC012 05/03 A2954 RMK AO1 PRESFR SLP019
SPECI CYNL 202003Z AUTO 04021G33KT 2 1/2SM SCT008 BKN011 OVC014 05/03 A2954 RMK AO1 PRESFR SLP019
SPECI CYNL 202002Z AUTO 04020G33KT 2 1/2SM BKN008 OVC014 05/03 A2954 RMK AO1 PRESFR SLP019
SPECI CYNL 202001Z AUTO 04018G33KT 3SM BKN008 OVC012 05/03 A2954 RMK AO1 PRESFR SLP019
METAR CYNL 202000Z AUTO 04019G33KT 3SM SCT008 BKN011 OVC014 05/03 A2955 RMK AO1 PRESFR SLP019
SPECI CYNL 201956Z AUTO 05018G36KT 3SM BKN008 BKN011 OVC015 05/03 A2954 RMK AO1 SLP019
SPECI CYNL 201955Z AUTO 04024G36KT 2 1/2SM SCT008 BKN011 OVC015 05/03 A2954 RMK AO1 SLP018
SPECI CYNL 201952Z AUTO 04024G36KT 2 1/2SM BKN008 BKN011 OVC015 05/03 A2954 RMK AO1 SLP019
SPECI CYNL 201949Z AUTO 04016G36KT 3SM FEW007 BKN010 OVC014 05/03 A2955 RMK AO1 SLP019
SPECI CYNL 201946Z AUTO 04022G36KT 2 1/2SM SCT009 BKN011 OVC014 05/03 A2954 RMK AO1 SLP019
SPECI CYNL 201941Z AUTO 04022G34KT 2 1/2SM BKN008 OVC013 05/03 A2955 RMK AO1 SLP020
SPECI CYNL 201935Z AUTO 04017G27KT 3SM BKN008 OVC013 05/04 A2956 RMK AO1 SLP022
SPECI CYNL 201934Z AUTO 04019G31KT 2 1/2SM BKN008 OVC014 05/04 A2955 RMK AO1 SLP022
SPECI CYNL 201933Z AUTO 04019G31KT 3SM SCT008 BKN010 OVC013 05/04 A2955 RMK AO1 SLP023
SPECI CYNL 201931Z AUTO 04017G31KT 3SM BKN008 OVC014 05/04 A2956 RMK AO1 SLP023
SPECI CYNL 201930Z AUTO 04018G31KT 3SM SCT008 BKN010 OVC014 05/04 A2956 RMK AO1 SLP023
SPECI CYNL 201912Z AUTO 05020G27KT 3SM BKN008 OVC013 05/04 A2957 RMK AO1 SLP025
SPECI CYNL 201910Z AUTO 05020G28KT 4SM SCT008 BKN010 OVC014 05/04 A2957 RMK AO1 SLP026
SPECI CYNL 201909Z AUTO 05018G28KT 4SM BKN008 OVC014 05/04 A2957 RMK AO1 SLP027
SPECI CYNL 201905Z AUTO 05019G34KT 3SM SCT008 BKN010 OVC013 05/04 A2957 RMK AO1 SLP027
METAR CYNL 201900Z AUTO 05022G34KT 3SM BKN008 OVC014 05/04 A2957 RMK AO1 SLP028
SPECI CYNL 201849Z AUTO 05022G31KT 2 1/2SM BKN008 OVC011 05/04 A2957 RMK AO1 PRESFR SLP029
SPECI CYNL 201847Z AUTO 05021G31KT 3SM BKN008 OVC011 05/04 A2958 RMK AO1 PRESFR SLP029
SPECI CYNL 201837Z AUTO 05020G31KT 2 1/2SM OVC008 05/04 A2958 RMK AO1 PRESFR SLP030
METAR CYNL 201800Z AUTO 05020G29KT 3SM BKN008 OVC012 05/03 A2958 RMK AO1 PRESFR SLP031
SPECI CYNL 201751Z AUTO 05018G28KT 2 1/2SM BKN008 OVC012 05/03 A2958 RMK AO1 SLP030
SPECI CYNL 201749Z AUTO 05019G28KT 3SM BKN008 OVC011 05/04 A2958 RMK AO1 SLP031
SPECI CYNL 201743Z AUTO 05020G28KT 2 1/2SM BKN008 OVC015 05/04 A2958 RMK AO1 SLP032
SPECI CYNL 201737Z AUTO 05020G26KT 3SM BKN008 BKN011 OVC013 05/04 A2959 RMK AO1 SLP033
SPECI CYNL 201735Z AUTO 05018G26KT 2 1/2SM BKN008 OVC011 05/04 A2959 RMK AO1 SLP033
SPECI CYNL 201726Z AUTO 05019G30KT 3SM BKN008 OVC011 05/04 A2959 RMK AO1 SLP034
SPECI CYNL 201724Z AUTO 05020G30KT 2 1/2SM BKN008 BKN011 OVC013 05/03 A2959 RMK AO1 SLP034
SPECI CYNL 201707Z AUTO 06024G29KT 3SM BKN008 OVC012 05/03 A2960 RMK AO1 SLP037
METAR CYNL 201700Z AUTO 06017G30KT 2 1/2SM BKN008 BKN012 OVC013 05/04 A2960 RMK AO1 SLP037
SPECI CYNL 201640Z AUTO 05020G29KT 2 1/2SM BKN008 BKN010 OVC013 05/03 A2961 RMK AO1 PRESFR SLP038
SPECI CYNL 201628Z AUTO 05018G30KT 3SM BKN008 BKN012 OVC014 05/03 A2961 RMK AO1 PRESFR SLP039
SPECI CYNL 201625Z AUTO 05018G30KT 2 1/2SM BKN008 BKN012 OVC014 05/03 A2961 RMK AO1 PRESFR SLP039
SPECI CYNL 201623Z AUTO 05024G30KT 3SM BKN008 BKN012 OVC014 05/03 A2961 RMK AO1 PRESFR SLP039
SPECI CYNL 201622Z AUTO 05025G30KT 2 1/2SM BKN008 BKN012 OVC014 05/03 A2961 RMK AO1 PRESFR SLP039
SPECI CYNL 201601Z AUTO 05021G32KT 3SM BKN007 BKN009 OVC012 05/03 A2961 RMK AO1 PRESFR SLP039
METAR CYNL 201600Z AUTO 05020G32KT 2 1/2SM BKN008 BKN009 OVC012 05/03 A2961 RMK AO1 PRESFR SLP039
SPECI CYNL 201557Z AUTO 05022G32KT 2 1/2SM BKN008 OVC010 05/03 A2961 RMK AO1 SLP039
METAR CYNL 201500Z AUTO 05021G28KT 5SM BKN008 OVC013 05/03 A2963 RMK AO1 SLP046
SPECI CYNL 201443Z AUTO 05022G31KT 3SM BKN008 OVC013 05/04 A2963 RMK AO1 SLP047
SPECI CYNL 201442Z AUTO 05022G30KT 3SM SCT008 BKN011 OVC014 05/04 A2963 RMK AO1 SLP047
SPECI CYNL 201441Z AUTO 05020G30KT 3SM BKN008 BKN011 OVC014 05/04 A2964 RMK AO1 SLP048
SPECI CYNL 201433Z AUTO 04020G32KT 3SM SCT008 BKN011 OVC014 05/04 A2963 RMK AO1 SLP047
SPECI CYNL 201432Z AUTO 05016G32KT 3SM BKN008 OVC012 05/04 A2964 RMK AO1 SLP047
SPECI CYNL 201415Z AUTO 05020G32KT 3SM SCT007 BKN010 OVC013 05/04 A2964 RMK AO1 SLP050
SPECI CYNL 201414Z AUTO 06021G32KT 3SM VV011 05/04 A2964 RMK AO1 SLP051
SPECI CYNL 201412Z AUTO 06023G32KT 2 1/2SM SCT007 BKN010 OVC013 05/04 A2965 RMK AO1 SLP051
METAR CYNL 201400Z AUTO 05019G33KT 3SM SCT007 BKN010 OVC012 05/04 A2965 RMK AO1 SLP052
SPECI CYNL 201357Z AUTO 06020G33KT 3SM SCT007 BKN010 OVC012 05/04 A2965 RMK AO1 PRESFR SLP052
SPECI CYNL 201356Z AUTO 05018G33KT 3SM BKN007 OVC013 05/04 A2965 RMK AO1 PRESFR SLP052
SPECI CYNL 201355Z AUTO 05018G33KT 3SM SCT007 BKN010 OVC013 05/04 A2965 RMK AO1 PRESFR SLP053
SPECI CYNL 201353Z AUTO 05020G33KT 3SM BKN007 OVC010 05/04 A2965 RMK AO1 PRESFR SLP052
SPECI CYNL 201351Z AUTO 05021G33KT 2 1/2SM BKN007 OVC010 05/04 A2965 RMK AO1 PRESFR SLP052
SPECI CYNL 201302Z AUTO 05016G26KT 6SM BKN008 BKN011 05/04 A2966 RMK AO1 PRESFR SLP054
METAR CYNL 201300Z AUTO 05017G26KT 6SM SCT009 BKN011 05/04 A2966 RMK AO1 PRESFR SLP054
SPECI CYNL 201259Z AUTO 05015G26KT 6SM BKN009 BKN012 05/04 A2966 RMK AO1 PRESFR SLP053
SPECI CYNL 201238Z AUTO 06016G25KT 6SM FEW009 SCT012 BKN016 06/04 A2967 RMK AO1 PRESFR SLP057
SPECI CYNL 201225Z AUTO 05020G28KT 6SM SCT013 BKN018 06/04 A2967 RMK AO1 PRESFR SLP058
SPECI CYNL 201211Z AUTO 06015G25KT 6SM BKN012 06/04 A2968 RMK AO1 PRESFR SLP060
SPECI CYNL 201210Z AUTO 06014G25KT 6SM SCT012 BKN015 06/04 A2968 RMK AO1 PRESFR SLP060
SPECI CYNL 201207Z AUTO 06018G25KT 5SM BKN012 06/04 A2968 RMK AO1 PRESFR SLP060
METAR CYNL 201200Z AUTO 06019KT 6SM SCT012 BKN016 06/04 A2968 RMK AO1 PRESFR SLP061
SPECI CYNL 201158Z AUTO 05016G21KT 6SM SCT012 BKN015 06/04 A2969 RMK AO1 PRESFR SLP060
SPECI CYNL 201156Z AUTO 06012G21KT 6SM BKN012 06/05 A2969 RMK AO1 SLP061
SPECI CYNL 201154Z AUTO 06014G22KT 6SM SCT012 BKN015 06/04 A2969 RMK AO1 SLP061
SPECI CYNL 201110Z AUTO 07016G28KT 6SM SCT014 06/04 A2971 RMK AO1 SLP067
METAR CYNL 201100Z AUTO 06014G25KT 7SM BKN014 BKN018 06/04 A2971 RMK AO1 SLP068
SPECI CYNL 201059Z AUTO 07014G25KT 7SM BKN014 06/04 A2971 RMK AO1 SLP067
SPECI CYNL 201032Z AUTO 06018G24KT 9SM SCT015 BKN019 07/03 A2971 RMK AO1 SLP068
METAR CYNL 201000Z AUTO 06016G23KT 9SM FEW019 07/03 A2972 RMK AO1 SLP069
METAR CYNL 200900Z AUTO 06012G22KT 9SM CLR 07/03 A2974 RMK AO1 PRESFR SLP075
METAR CYNL 200800Z AUTO 07015KT 9SM CLR 08/04 A2977 RMK AO1 SLP086
METAR CYNL 200700Z AUTO 06012G18KT 9SM FEW170 08/04 A2977 RMK AO1 PRESFR SLP086
METAR CYNL 200600Z AUTO 07014G20KT 9SM CLR 09/03 A2980 RMK AO1 SLP096
METAR CYNL 200500Z AUTO 07016G23KT 9SM CLR 09/03 A2982 RMK AO1 SLP102
METAR CYNL 200400Z AUTO 07014G20KT 9SM CLR 10/04 A2982 RMK AO1 SLP102
METAR CYNL 200300Z AUTO 06009KT 9SM CLR 10/04 A2983 RMK AO1 SLP105
METAR CYNL 200200Z AUTO 07006KT 9SM CLR 10/03 A2984 RMK AO1 SLP111
METAR CYNL 200100Z AUTO 09007KT 9SM CLR 11/02 A2985 RMK AO1 SLP116
METAR CYNL 200000Z AUTO 10008KT 9SM CLR 13/01 A2985 RMK AO1 SLP118
METAR CYNL 192300Z AUTO 09013G19KT 9SM CLR 14/01 A2984 RMK AO1 SLP116
METAR CYNL 192200Z AUTO 09011G18KT 9SM CLR 14/01 A2985 RMK AO1 SLP118
METAR CYNL 192100Z AUTO 10011G17KT 9SM CLR 14/01 A2985 RMK AO1 SLP117
METAR CYNL 192000Z AUTO 08015G21KT 9SM CLR 14/00 A2986 RMK AO1 SLP120
METAR CYNL 191900Z AUTO 11014G21KT 9SM CLR 13/01 A2987 RMK AO1 SLP125
METAR CYNL 191800Z AUTO 10012G21KT 9SM FEW037 13/03 A2988 RMK AO1 SLP127
METAR CYNL 191700Z AUTO 11011G18KT 9SM CLR 12/04 A2990 RMK AO1 SLP132
METAR CYNL 191600Z AUTO 12011G17KT 9SM CLR 12/05 A2990 RMK AO1 SLP133
METAR CYNL 191500Z AUTO 10007KT 9SM CLR 09/07 A2990 RMK AO1 SLP134
METAR CYNL 191400Z AUTO 08006KT 9SM CLR 07/06 A2989 RMK AO1 SLP134
METAR CYNL 191300Z AUTO 06006KT 9SM CLR 03/03 A2989 RMK AO1 SLP136
METAR CYNL 191200Z AUTO 06003KT 9SM CLR 03/02 A2989 RMK AO1 SLP134
METAR CYNL 191100Z AUTO 07002KT 9SM CLR 03/03 A2989 RMK AO1 SLP130
METAR CYNL 191000Z AUTO 05003KT 9SM CLR 03/02 A2988 RMK AO1 SLP129
METAR CYNL 190900Z AUTO 04002KT 9SM CLR 03/02 A2988 RMK AO1 SLP128
METAR CYNL 190800Z AUTO 04002KT 9SM CLR 03/02 A2989 RMK AO1 SLP129
METAR CYNL 190700Z AUTO 06002KT 9SM CLR 04/03 A2989 RMK AO1 SLP129
METAR CYNL 190600Z AUTO 00000KT 9SM FEW140 06/03 A2989 RMK AO1 SLP129
METAR CYNL 190500Z AUTO 11003KT 9SM CLR 06/03 A2989 RMK AO1 SLP128
METAR CYNL 190400Z AUTO 08003KT 9SM BKN140 07/03 A2988 RMK AO1 SLP124
METAR CYNL 190300Z AUTO 07005KT 9SM BKN150 09/03 A2988 RMK AO1 SLP123
METAR CYNL 190200Z AUTO 08004KT 9SM SCT150 10/03 A2988 RMK AO1 SLP125
METAR CYNL 190100Z AUTO 09006KT 9SM SCT150 12/03 A2987 RMK AO1 SLP126
METAR CYNL 190000Z AUTO 11006KT 9SM CLR 14/02 A2987 RMK AO1 SLP124
METAR CYNL 182300Z AUTO 15004KT 9SM SCT058 14/01 A2987 RMK AO1 SLP125
METAR CYNL 182200Z AUTO 12005KT 090V150 9SM SCT052 14/02 A2987 RMK AO1 SLP127
METAR CYNL 182100Z AUTO 14006KT 9SM BKN050 15/03 A2988 RMK AO1 SLP127
METAR CYNL 182000Z AUTO 18006KT 9SM BKN052 14/02 A2989 RMK AO1 SLP130
METAR CYNL 181900Z AUTO 13005KT 090V170 9SM FEW048 14/02 A2990 RMK AO1 SLP134
METAR CYNL 181800Z AUTO 18004KT 9SM SCT041 13/03 A2990 RMK AO1 SLP136
METAR CYNL 181700Z AUTO 16005KT 9SM CLR 13/03 A2991 RMK AO1 SLP137
METAR CYNL 181600Z AUTO 14003KT 9SM FEW160 12/05 A2991 RMK AO1 SLP139
METAR CYNL 181500Z AUTO 00000KT 9SM CLR 10/05 A2992 RMK AO1 SLP141
METAR CYNL 181400Z AUTO 00000KT 9SM CLR 05/04 A2991 RMK AO1 SLP145
METAR CYNL 181300Z AUTO 05003KT 9SM CLR 01/00 A2990 RMK AO1 SLP146
METAR CYNL 181200Z AUTO 00000KT 9SM FEW086 01/01 A2991 RMK AO1 SLP143
METAR CYNL 181100Z AUTO 00000KT 9SM BKN088 01/01 A2991 RMK AO1 SLP142
SPECI CYNL 181040Z AUTO 00000KT 4SM FEW086 01/01 A2991 RMK AO1 SLP142
SPECI CYNL 181039Z AUTO 00000KT 1 1/2SM FEW086 SCT170 01/01 A2991 RMK AO1 SLP142
SPECI CYNL 181038Z AUTO 00000KT 3/4SM FEW086 SCT170 01/01 A2991 RMK AO1 SLP141
SPECI CYNL 181035Z AUTO 00000KT 5/8SM FEW086 SCT170 01/01 A2991 RMK AO1 SLP141
SPECI CYNL 181034Z AUTO 00000KT 1SM FEW086 SCT170 01/01 A2991 RMK AO1 SLP141
SPECI CYNL 181032Z AUTO 00000KT 1 3/4SM FEW086 SCT170 01/01 A2991 RMK AO1 SLP142
SPECI CYNL 181031Z AUTO 25002KT 2SM FEW086 SCT170 01/01 A2991 RMK AO1 SLP142
METAR CYNL 181000Z AUTO 00000KT 9SM CLR 02/01 A2991 RMK AO1 SLP141
METAR CYNL 180900Z AUTO 00000KT 9SM FEW210 03/02 A2992 RMK AO1 SLP142
METAR CYNL 180800Z AUTO 01003KT 9SM CLR 03/02 A2992 RMK AO1 SLP141
METAR CYNL 180700Z AUTO 00000KT 9SM CLR 03/02 A2992 RMK AO1 SLP142
METAR CYNL 180600Z AUTO 02002KT 9SM CLR 04/03 A2993 RMK AO1 SLP143
METAR CYNL 180500Z AUTO 00000KT 9SM BKN160 05/03 A2993 RMK AO1 SLP143
METAR CYNL 180400Z AUTO 00000KT 9SM BKN150 05/03 A2994 RMK AO1 SLP147
METAR CYNL 180300Z AUTO 07002KT 9SM BKN150 06/03 A2994 RMK AO1 SLP149
METAR CYNL 180200Z AUTO 08002KT 9SM CLR 06/03 A2994 RMK AO1 SLP153
METAR CYNL 180100Z AUTO 00000KT 9SM CLR 10/04 A2995 RMK AO1 SLP155
METAR CYNL 180000Z AUTO 15003KT 9SM CLR 12/03 A2995 RMK AO1 SLP157
METAR CYNL 172300Z AUTO 17003KT 9SM CLR 12/02 A2996 RMK AO1 SLP159
METAR CYNL 172200Z AUTO 18009KT 9SM CLR 14/01 A2997 RMK AO1 SLP159
METAR CYNL 172100Z AUTO 16007KT 9SM CLR 14/01 A2998 RMK AO1 SLP164
METAR CYNL 172000Z AUTO 16004KT 9SM CLR 14/01 A3000 RMK AO1 SLP170
METAR CYNL 171900Z AUTO 22003KT 9SM CLR 13/01 A3001 RMK AO1 PRESFR SLP177
METAR CYNL 171800Z AUTO 16005KT 9SM CLR 12/02 A3003 RMK AO1 SLP182
METAR CYNL 171700Z AUTO 18006KT 9SM CLR 12/01 A3005 RMK AO1 SLP187
METAR CYNL 171600Z AUTO 13003KT 9SM CLR 10/04 A3005 RMK AO1 SLP189
METAR CYNL 171500Z AUTO 00000KT 9SM CLR 08/04 A3007 RMK AO1 SLP194
METAR CYNL 171400Z AUTO 00000KT 9SM CLR 03/02 A3008 RMK AO1 SLP201
SPECI CYNL 171329Z AUTO 08003KT 8SM CLR 01/00 A3008 RMK AO1 SLP202
SPECI CYNL 171328Z AUTO 08003KT 2SM CLR 01/00 A3008 RMK AO1 SLP203
SPECI CYNL 171327Z AUTO 08003KT 1 3/4SM CLR 01/M00 A3008 RMK AO1 SLP203
SPECI CYNL 171326Z AUTO 08003KT 2 1/2SM CLR 01/M00 A3008 RMK AO1 SLP203
SPECI CYNL 171315Z AUTO 07003KT 4SM CLR 00/M00 A3008 RMK AO1 SLP203
SPECI CYNL 171313Z AUTO 07003KT 1 3/4SM CLR 00/M00 A3008 RMK AO1 SLP203
SPECI CYNL 171312Z AUTO 07003KT 2 1/2SM CLR 00/M00 A3008 RMK AO1 SLP203
METAR CYNL 171300Z AUTO 05002KT 9SM CLR 00/M01 A3008 RMK AO1 SLP204
METAR CYNL 171200Z AUTO 08002KT 9SM CLR 00/M01 A3009 RMK AO1 SLP205
METAR CYNL 171100Z AUTO 00000KT 9SM FEW230 01/00 A3010 RMK AO1 SLP206
METAR CYNL 171000Z AUTO 00000KT 9SM CLR 02/01 A3011 RMK AO1 SLP206
METAR CYNL 170900Z AUTO 08003KT 9SM FEW210 02/01 A3012 RMK AO1 SLP211
METAR CYNL 170800Z AUTO 07003KT 9SM SCT210 01/00 A3013 RMK AO1 SLP215
METAR CYNL 170700Z AUTO 00000KT 9SM CLR 02/01 A3014 RMK AO1 SLP218
METAR CYNL 170600Z AUTO 00000KT 9SM CLR 03/01 A3015 RMK AO1 SLP220
METAR CYNL 170500Z AUTO 00000KT 9SM CLR 04/02 A3016 RMK AO1 SLP223
METAR CYNL 170400Z AUTO 19003KT 9SM CLR 06/02 A3016 RMK AO1 SLP221
METAR CYNL 170300Z AUTO 21003KT 9SM CLR 08/02 A3016 RMK AO1 SLP223
METAR CYNL 170200Z AUTO 18003KT 9SM CLR 09/03 A3017 RMK AO1 SLP227
METAR CYNL 170100Z AUTO 18003KT 9SM CLR 12/02 A3017 RMK AO1 SLP229
METAR CYNL 170000Z AUTO 17006KT 9SM CLR 14/02 A3018 RMK AO1 SLP233
METAR CYNL 162300Z AUTO 20005KT 9SM CLR 15/00 A3019 RMK AO1 SLP238
METAR CYNL 162200Z AUTO 19005KT 160V230 9SM CLR 15/00 A3021 RMK AO1 SLP240
METAR CYNL 162100Z AUTO 24004KT 9SM CLR 15/00 A3022 RMK AO1 SLP247
METAR CYNL 162000Z AUTO 25004KT 9SM CLR 15/01 A3024 RMK AO1 SLP252
METAR CYNL 161900Z AUTO 23006KT 9SM CLR 14/01 A3025 RMK AO1 SLP257
METAR CYNL 161800Z AUTO 21007KT 9SM CLR 13/02 A3026 RMK AO1 SLP262
METAR CYNL 161700Z AUTO 21007KT 9SM CLR 13/03 A3027 RMK AO1 SLP264
METAR CYNL 161600Z AUTO 24008KT 9SM CLR 11/04 A3028 RMK AO1 SLP268
METAR CYNL 161500Z AUTO 22004KT 9SM CLR 08/05 A3028 RMK AO1 SLP272
METAR CYNL 161400Z AUTO 00000KT 9SM CLR 04/03 A3028 RMK AO1 SLP275
SPECI CYNL 161306Z AUTO 00000KT 3SM CLR 01/00 A3028 RMK AO1 SLP276
SPECI CYNL 161305Z AUTO 00000KT 1 1/4SM CLR 01/00 A3028 RMK AO1 SLP276
SPECI CYNL 161303Z AUTO 00000KT 1/2SM CLR 01/M00 A3028 RMK AO1 SLP276
SPECI CYNL 161302Z AUTO 00000KT 1SM CLR 01/M00 A3028 RMK AO1 SLP276
SPECI CYNL 161301Z AUTO 00000KT 2SM CLR 01/M00 A3028 RMK AO1 SLP276
METAR CYNL 161300Z AUTO 00000KT 7SM CLR 01/00 A3028 RMK AO1 SLP276
METAR CYNL 161200Z AUTO 00000KT 9SM CLR M00/M01 A3028 RMK AO1 SLP272
SPECI CYNL 161119Z AUTO 00000KT 4SM CLR 00/M00 A3028 RMK AO1 SLP270
SPECI CYNL 161118Z AUTO 00000KT 2SM CLR 00/M00 A3028 RMK AO1 SLP270
SPECI CYNL 161115Z AUTO 00000KT 1SM CLR 01/00 A3028 RMK AO1 SLP270
SPECI CYNL 161114Z AUTO 20002KT 1 1/2SM CLR 01/00 A3028 RMK AO1 SLP270
METAR CYNL 161100Z AUTO 00000KT 9SM CLR 01/00 A3028 RMK AO1 SLP270
METAR CYNL 161000Z AUTO 00000KT 9SM CLR 01/00 A3029 RMK AO1 SLP274
METAR CYNL 160900Z AUTO 15002KT 9SM CLR 01/00 A3030 RMK AO1 SLP276
METAR CYNL 160800Z AUTO 00000KT 9SM CLR 01/00 A3030 RMK AO1 SLP274
METAR CYNL 160700Z AUTO 00000KT 9SM CLR 01/01 A3030 RMK AO1 SLP276
METAR CYNL 160600Z AUTO 00000KT 9SM CLR 02/01 A3030 RMK AO1 SLP275
METAR CYNL 160500Z AUTO 00000KT 9SM CLR 01/00 A3029 RMK AO1 SLP275
METAR CYNL 160400Z AUTO 00000KT 9SM CLR 02/01 A3029 RMK AO1 SLP274
METAR CYNL 160300Z AUTO 00000KT 9SM CLR 03/02 A3029 RMK AO1 SLP271
METAR CYNL 160200Z AUTO 00000KT 9SM CLR 05/03 A3029 RMK AO1 SLP275
METAR CYNL 160100Z AUTO 00000KT 9SM CLR 09/02 A3030 RMK AO1 SLP275
METAR CYNL 160000Z AUTO 21006KT 9SM OVC044 11/01 A3029 RMK AO1 SLP272
METAR CYNL 152300Z AUTO 27003KT 9SM OVC043 11/01 A3030 RMK AO1 SLP275
METAR CYNL 152200Z AUTO 25006KT 9SM FEW047 10/00 A3030 RMK AO1 SLP276
METAR CYNL 152100Z AUTO 24006KT 190V290 9SM BKN045 12/01 A3030 RMK AO1 SLP275
METAR CYNL 152000Z AUTO 00000KT 9SM CLR 10/00 A3031 RMK AO1 SLP278
METAR CYNL 151900Z AUTO 29007KT 9SM SCT042 10/00 A3031 RMK AO1 SLP279
METAR CYNL 151800Z AUTO 31003KT 9SM BKN042 10/00 A3031 RMK AO1 SLP279
METAR CYNL 151700Z AUTO 35003KT 310V020 9SM SCT042 09/M00 A3030 RMK AO1 SLP277
METAR CYNL 151600Z AUTO 35003KT 9SM SCT045 09/04 A3030 RMK AO1 SLP275
METAR CYNL 151500Z AUTO 00000KT 9SM OVC045 06/04 A3029 RMK AO1 SLP275
METAR CYNL 151400Z AUTO 30003KT 9SM OVC046 03/03 A3028 RMK AO1 SLP273
METAR CYNL 151300Z AUTO 30002KT 9SM SCT049 03/02 A3027 RMK AO1 SLP269
METAR CYNL 151200Z AUTO 33005KT 9SM SCT049 02/01 A3025 RMK AO1 SLP264
METAR CYNL 151100Z AUTO 32005KT 9SM CLR 02/02 A3024 RMK AO1 SLP256
METAR CYNL 151000Z AUTO 00000KT 9SM CLR 02/02 A3022 RMK AO1 SLP251
METAR CYNL 150900Z AUTO 32003KT 9SM CLR 02/02 A3021 RMK AO1 SLP248
METAR CYNL 150800Z AUTO 32005KT 9SM CLR 03/03 A3020 RMK AO1 SLP244
METAR CYNL 150700Z AUTO 31005KT 9SM CLR 03/03 A3019 RMK AO1 SLP238
METAR CYNL 150600Z AUTO 32005KT 9SM CLR 03/03 A3018 RMK AO1 SLP236
METAR CYNL 150500Z AUTO 32005KT 9SM CLR 04/03 A3018 RMK AO1 SLP233
METAR CYNL 150400Z AUTO 33004KT 9SM FEW054 05/04 A3016 RMK AO1 SLP229
METAR CYNL 150300Z AUTO 31003KT 9SM BKN050 06/05 A3016 RMK AO1 SLP226
METAR CYNL 150200Z AUTO 30003KT 9SM SCT050 07/06 A3014 RMK AO1 SLP222
METAR CYNL 150100Z AUTO 31003KT 9SM FEW035 SCT045 07/05 A3014 RMK AO1 SLP219
SPECI CYNL 150025Z AUTO 00003KT 9SM FEW017 SCT023 BKN031 07/05 A3013 RMK AO1 SLP217
SPECI CYNL 150024Z AUTO 00003KT 9SM FEW017 BKN023 07/05 A3013 RMK AO1 SLP217
SPECI CYNL 150023Z AUTO 00003KT 9SM FEW016 SCT022 BKN030 07/05 A3013 RMK AO1 SLP216
SPECI CYNL 150009Z AUTO 01005KT 5SM BKN021 08/05 A3013 RMK AO1 SLP216
SPECI CYNL 150004Z AUTO 01004KT 6SM SCT022 BKN027 08/05 A3012 RMK AO1 SLP215
METAR CYNL 150000Z AUTO 03007KT 6SM SCT021 BKN044 08/04 A3012 RMK AO1 SLP214
METAR CYNL 142300Z AUTO 00004KT 9SM FEW021 SCT028 BKN038 09/05 A3011 RMK AO1 SLP208
METAR CYNL 142200Z AUTO 03003KT 9SM FEW066 08/05 A3010 RMK AO1 SLP208
SPECI CYNL 142137Z AUTO 05004KT 000V090 9SM FEW016 SCT022 07/05 A3010 RMK AO1 SLP208
SPECI CYNL 142136Z AUTO 04004KT 000V070 9SM FEW009 SCT022 BKN029 07/05 A3010 RMK AO1 SLP209
SPECI CYNL 142129Z AUTO 00004KT 6SM FEW007 BKN022 BKN029 07/05 A3011 RMK AO1 SLP210
SPECI CYNL 142128Z AUTO 01003KT 4SM VV021 07/06 A3011 RMK AO1 SLP210
SPECI CYNL 142127Z AUTO 01002KT 2 1/2SM VV021 07/05 A3011 RMK AO1 SLP210
SPECI CYNL 142123Z AUTO 00008KT 310V040 1 1/2SM FEW007 BKN022 07/05 A3011 RMK AO1 SLP210
SPECI CYNL 142120Z AUTO 01008KT 310V070 1 1/4SM FEW007 SCT016 BKN023 07/05 A3011 RMK AO1 SLP210
SPECI CYNL 142118Z AUTO 01007KT 310V080 1 3/4SM FEW007 SCT016 BKN023 07/06 A3011 RMK AO1 SLP210
SPECI CYNL 142114Z AUTO 04003KT 2 1/2SM VV023 08/05 A3010 RMK AO1 SLP209
SPECI CYNL 142113Z AUTO 06003KT 3SM VV023 08/05 A3010 RMK AO1 SLP208
SPECI CYNL 142112Z AUTO 07004KT 2 1/2SM VV021 08/05 A3010 RMK AO1 SLP208
SPECI CYNL 142107Z AUTO 09005KT 4SM VV016 08/05 A3010 RMK AO1 SLP207
METAR CYNL 142100Z AUTO 08007KT 6SM FEW007 SCT020 08/05 A3010 RMK AO1 SLP206
SPECI CYNL 142055Z AUTO 09007KT 6SM FEW007 SCT028 08/05 A3009 RMK AO1 SLP204
SPECI CYNL 142023Z AUTO 34009KT 270V060 9SM FEW017 SCT024 BKN039 08/04 A3009 RMK AO1 SLP204
SPECI CYNL 142018Z AUTO 33009KT 270V020 3SM VV017 08/04 A3009 RMK AO1 SLP204
SPECI CYNL 142017Z AUTO 33009KT 270V020 1 1/2SM VV018 08/03 A3009 RMK AO1 SLP204
SPECI CYNL 142014Z AUTO 35009KT 1/2SM VV021 09/06 A3009 RMK AO1 SLP203
SPECI CYNL 142013Z AUTO 01006KT 3/4SM FEW017 SCT025 09/06 A3009 RMK AO1 SLP203
SPECI CYNL 142011Z AUTO 01007KT 1 1/4SM SCT025 09/05 A3009 RMK AO1 SLP202
SPECI CYNL 142010Z AUTO 02007KT 2SM SCT024 10/05 A3009 RMK AO1 SLP201
METAR CYNL 142000Z AUTO 02006KT 350V060 9SM FEW028 10/05 A3009 RMK AO1 SLP200
SPECI CYNL 141907Z AUTO 02008KT 7SM SCT019 BKN041 08/05 A3009 RMK AO1 SLP202
SPECI CYNL 141906Z AUTO 01008KT 5SM SCT019 BKN026 08/06 A3009 RMK AO1 SLP202
METAR CYNL 141900Z AUTO 01011KT 9SM FEW018 SCT024 09/05 A3008 RMK AO1 SLP200
SPECI CYNL 141851Z AUTO 01007KT 9SM SCT024 09/05 A3008 RMK AO1 SLP199
SPECI CYNL 141848Z AUTO 35006KT 2 1/2SM SCT024 09/06 A3008 RMK AO1 SLP198
SPECI CYNL 141847Z AUTO 35006KT 1 1/2SM SCT024 09/06 A3008 RMK AO1 SLP198
SPECI CYNL 141846Z AUTO 33007KT 1 1/4SM SCT024 09/06 A3008 RMK AO1 SLP198
SPECI CYNL 141845Z AUTO 33008KT 1 1/2SM SCT024 10/06 A3008 RMK AO1 SLP198
SPECI CYNL 141844Z AUTO 33008KT 2SM SCT025 10/06 A3008 RMK AO1 SLP197
METAR CYNL 141800Z AUTO 32005KT 280V010 9SM FEW018 SCT031 09/04 A3008 RMK AO1 SLP197
SPECI CYNL 141721Z AUTO 34006KT 9SM FEW016 SCT029 BKN040 08/04 A3008 RMK AO1 SLP199
SPECI CYNL 141715Z AUTO 33006KT 9SM FEW015 SCT021 BKN027 08/05 A3008 RMK AO1 SLP200
METAR CYNL 141700Z AUTO 32005KT 9SM FEW015 BKN020 OVC033 08/05 A3008 RMK AO1 SLP200
SPECI CYNL 141647Z AUTO 34004KT 9SM FEW013 BKN021 08/05 A3008 RMK AO1 SLP199
SPECI CYNL 141618Z AUTO 32003KT 9SM FEW013 SCT027 08/06 A3008 RMK AO1 SLP200
SPECI CYNL 141608Z AUTO 34004KT 9SM FEW007 SCT022 OVC027 07/05 A3008 RMK AO1 SLP200
SPECI CYNL 141607Z AUTO 35005KT 9SM FEW007 OVC024 07/05 A3008 RMK AO1 SLP200
SPECI CYNL 141606Z AUTO 35005KT 9SM FEW007 SCT021 OVC026 07/05 A3008 RMK AO1 SLP200
SPECI CYNL 141602Z AUTO 35003KT 9SM FEW007 OVC024 07/05 A3008 RMK AO1 SLP200
METAR CYNL 141600Z AUTO 35004KT 9SM FEW007 OVC025 07/05 A3008 RMK AO1 SLP200
SPECI CYNL 141558Z AUTO 35004KT 9SM FEW007 SCT014 OVC027 07/05 A3008 RMK AO1 SLP200
SPECI CYNL 141554Z AUTO 35004KT 9SM FEW008 SCT012 BKN021 07/05 A3008 RMK AO1 SLP200
SPECI CYNL 141546Z AUTO 35003KT 7SM FEW008 SCT011 BKN014 06/05 A3008 RMK AO1 SLP201
SPECI CYNL 141541Z AUTO 00003KT 6SM FEW008 SCT012 BKN015 06/05 A3008 RMK AO1 SLP201
SPECI CYNL 141529Z AUTO 01006KT 3SM FEW008 BKN011 BKN024 07/05 A3008 RMK AO1 SLP200
SPECI CYNL 141509Z AUTO 34003KT 8SM FEW009 SCT014 BKN024 07/06 A3008 RMK AO1 SLP199
SPECI CYNL 141508Z AUTO 33003KT 8SM FEW009 SCT013 BKN025 07/06 A3008 RMK AO1 SLP199
METAR CYNL 141500Z AUTO 34004KT 6SM FEW009 SCT011 BKN019 07/06 A3007 RMK AO1 SLP199
SPECI CYNL 141459Z AUTO 34003KT 6SM FEW009 SCT011 BKN019 07/06 A3007 RMK AO1 SLP199
SPECI CYNL 141452Z AUTO 33003KT 3SM SCT008 BKN013 07/06 A3007 RMK AO1 SLP198
SPECI CYNL 141423Z AUTO 00000KT 9SM SCT007 BKN015 BKN018 06/06 A3007 RMK AO1 SLP198
SPECI CYNL 141414Z AUTO 00000KT 9SM SCT007 BKN011 BKN016 06/06 A3007 RMK AO1 SLP198
SPECI CYNL 141411Z AUTO 25002KT 9SM VV007 06/06 A3007 RMK AO1 SLP198
SPECI CYNL 141406Z AUTO 00000KT 9SM SCT007 BKN011 BKN015 06/06 A3007 RMK AO1 SLP198
SPECI CYNL 141404Z AUTO 00000KT 9SM FEW007 SCT011 BKN015 06/06 A3007 RMK AO1 SLP198
METAR CYNL 141400Z AUTO 00000KT 9SM FEW008 BKN011 BKN014 06/06 A3007 RMK AO1 SLP197
SPECI CYNL 141342Z AUTO 00000KT 9SM SCT008 BKN013 OVC017 06/06 A3007 RMK AO1 SLP197
SPECI CYNL 141335Z AUTO 29002KT 9SM BKN008 BKN012 OVC016 06/06 A3007 RMK AO1 SLP196
SPECI CYNL 141326Z AUTO 30002KT 9SM SCT008 BKN013 OVC017 06/06 A3007 RMK AO1 SLP196
SPECI CYNL 141314Z AUTO 30003KT 9SM BKN008 BKN040 06/05 A3007 RMK AO1 SLP197
SPECI CYNL 141311Z AUTO 30003KT 9SM SCT009 BKN014 BKN040 06/05 A3007 RMK AO1 SLP196
SPECI CYNL 141301Z AUTO 28003KT 9SM FEW009 BKN040 06/05 A3006 RMK AO1 SLP196
METAR CYNL 141300Z AUTO 28003KT 9SM FEW011 BKN040 06/05 A3006 RMK AO1 SLP196
SPECI CYNL 141222Z AUTO 30003KT 9SM FEW009 SCT042 06/05 A3006 RMK AO1 SLP193
METAR CYNL 141200Z AUTO 30003KT 9SM BKN042 06/05 A3005 RMK AO1 SLP192
METAR CYNL 141100Z AUTO 28003KT 9SM OVC040 05/05 A3005 RMK AO1 SLP190
METAR CYNL 141000Z AUTO 27002KT 9SM BKN041 05/05 A3005 RMK AO1 SLP190
METAR CYNL 140900Z AUTO 27002KT 9SM OVC040 05/05 A3005 RMK AO1 SLP190
METAR CYNL 140800Z AUTO 29003KT 9SM BKN039 05/04 A3005 RMK AO1 SLP187
METAR CYNL 140700Z AUTO 30004KT 9SM BKN036 05/04 A3004 RMK AO1 SLP186
METAR CYNL 140600Z AUTO 29003KT 9SM OVC040 06/04 A3004 RMK AO1 SLP187
METAR CYNL 140500Z AUTO 30003KT 9SM OVC040 06/04 A3004 RMK AO1 SLP186
METAR CYNL 140400Z AUTO 32004KT 9SM OVC038 06/04 A3004 RMK AO1 SLP187
METAR CYNL 140300Z AUTO 30004KT 9SM OVC038 06/04 A3004 RMK AO1 SLP189
METAR CYNL 140200Z AUTO 29004KT 9SM FEW016 BKN035 06/04 A3003 RMK AO1 SLP186
METAR CYNL 140100Z AUTO 30006KT 9SM OVC040 07/04 A3003 RMK AO1 SLP184
METAR CYNL 140000Z AUTO 31006KT 9SM BKN033 07/03 A3002 RMK AO1 SLP182
METAR CYNL 132300Z AUTO 31005KT 9SM SCT038 08/03 A3002 RMK AO1 SLP181
SPECI CYNL 132230Z AUTO 31005KT 9SM SCT030 BKN038 08/03 A3002 RMK AO1 SLP180
SPECI CYNL 132229Z AUTO 30004KT 9SM BKN029 BKN037 08/03 A3002 RMK AO1 SLP180
SPECI CYNL 132228Z AUTO 31004KT 9SM SCT029 BKN037 08/03 A3002 RMK AO1 SLP180
SPECI CYNL 132227Z AUTO 32005KT 9SM BKN029 BKN038 08/03 A3002 RMK AO1 SLP180
METAR CYNL 132200Z AUTO 31006KT 9SM BKN033 08/03 A3002 RMK AO1 SLP180
METAR CYNL 132100Z AUTO 30007KT 9SM BKN039 10/01 A3001 RMK AO1 SLP176
METAR CYNL 132000Z AUTO 28006KT 9SM FEW056 09/01 A3002 RMK AO1 SLP179
METAR CYNL 131900Z AUTO 32007KT 9SM CLR 08/01 A3002 RMK AO1 SLP180
METAR CYNL 131800Z AUTO 31007KT 9SM CLR 08/02 A3001 RMK AO1 SLP177
METAR CYNL 131700Z AUTO 33005KT 9SM CLR 06/03 A3002 RMK AO1 SLP181
METAR CYNL 131600Z AUTO 32005KT 9SM SCT034 05/03 A3002 RMK AO1 SLP183
METAR CYNL 131500Z AUTO 31004KT 9SM BKN052 05/03 A3000 RMK AO1 SLP178
METAR CYNL 131400Z AUTO 33004KT 9SM CLR 04/03 A3000 RMK AO1 SLP179
METAR CYNL 131300Z AUTO 34005KT 9SM CLR 04/03 A3000 RMK AO1 SLP178
METAR CYNL 131200Z AUTO 01004KT 9SM CLR 04/02 A2999 RMK AO1 SLP175
SPECI CYNL 131129Z AUTO 01005KT 9SM SCT026 04/02 A2999 RMK AO1 SLP173
SPECI CYNL 131103Z AUTO 02004KT 9SM OVC025 04/02 A2998 RMK AO1 SLP171
METAR CYNL 131100Z AUTO 03004KT 9SM OVC024 04/02 A2998 RMK AO1 SLP171
SPECI CYNL 131019Z AUTO 01004KT 9SM BKN024 04/03 A2997 RMK AO1 SLP168
SPECI CYNL 131013Z AUTO 01005KT 9SM SCT023 BKN029 04/02 A2997 RMK AO1 SLP167
SPECI CYNL 131009Z AUTO 02005KT 9SM SCT022 04/02 A2997 RMK AO1 SLP167
SPECI CYNL 131007Z AUTO 01005KT 9SM SCT022 BKN029 04/03 A2997 RMK AO1 SLP167
SPECI CYNL 131005Z AUTO 01005KT 9SM SCT021 BKN030 04/02 A2997 RMK AO1 SLP166
METAR CYNL 131000Z AUTO 01006KT 9SM BKN021 04/03 A2997 RMK AO1 SLP166
SPECI CYNL 130938Z AUTO 01006KT 9SM BKN020 04/03 A2997 RMK AO1 SLP166
SPECI CYNL 130930Z AUTO 01005KT 9SM FEW020 BKN026 04/03 A2997 RMK AO1 SLP165
SPECI CYNL 130914Z AUTO 01006KT 7SM SCT026 04/03 A2997 RMK AO1 SLP165
SPECI CYNL 130908Z AUTO 01006KT 9SM BKN025 04/02 A2997 RMK AO1 SLP165
METAR CYNL 130900Z AUTO 01005KT 9SM BKN023 04/03 A2997 RMK AO1 SLP164
SPECI CYNL 130851Z AUTO 01006KT 9SM BKN022 04/03 A2996 RMK AO1 SLP164
SPECI CYNL 130847Z AUTO 01005KT 9SM SCT021 BKN026 04/03 A2996 RMK AO1 SLP163
SPECI CYNL 130841Z AUTO 01005KT 9SM BKN021 04/03 A2996 RMK AO1 SLP163
SPECI CYNL 130832Z AUTO 01005KT 9SM FEW021 BKN026 04/03 A2996 RMK AO1 SLP162
METAR CYNL 130800Z AUTO 02005KT 9SM SCT025 04/03 A2995 RMK AO1 SLP160
SPECI CYNL 130752Z AUTO 01005KT 9SM SCT024 04/03 A2995 RMK AO1 SLP160
SPECI CYNL 130730Z AUTO 02005KT 9SM BKN022 04/03 A2996 RMK AO1 SLP161
SPECI CYNL 130729Z AUTO 02005KT 9SM SCT021 BKN025 04/03 A2996 RMK AO1 SLP161
SPECI CYNL 130724Z AUTO 02005KT 9SM BKN021 04/03 A2996 RMK AO1 SLP161
SPECI CYNL 130722Z AUTO 01005KT 9SM SCT021 BKN026 04/03 A2996 RMK AO1 SLP161
METAR CYNL 130700Z AUTO 03005KT 9SM FEW020 04/03 A2995 RMK AO1 SLP160
SPECI CYNL 130635Z AUTO 02005KT 9SM SCT018 04/03 A2995 RMK AO1 SLP159
METAR CYNL 130600Z AUTO 02007KT 9SM OVC016 04/03 A2995 RMK AO1 SLP157
SPECI CYNL 130536Z AUTO 03006KT 9SM SCT015 BKN019 04/03 A2994 RMK AO1 SLP156
SPECI CYNL 130519Z AUTO 03007KT 9SM FEW008 SCT016 04/03 A2994 RMK AO1 SLP155
SPECI CYNL 130518Z AUTO 03006KT 9SM FEW008 BKN015 04/04 A2994 RMK AO1 SLP155
SPECI CYNL 130517Z AUTO 03006KT 9SM FEW008 SCT015 04/04 A2994 RMK AO1 SLP155
SPECI CYNL 130508Z AUTO 03007KT 9SM SCT008 BKN016 04/04 A2994 RMK AO1 SLP155
METAR CYNL 130500Z AUTO 03007KT 5SM BKN008 OVC020 04/04 A2994 RMK AO1 SLP154
SPECI CYNL 130445Z AUTO 03008KT 5SM BKN007 BKN024 04/04 A2993 RMK AO1 SLP154
SPECI CYNL 130441Z AUTO 03007KT 5SM SCT008 BKN024 04/04 A2993 RMK AO1 SLP153
SPECI CYNL 130440Z AUTO 03007KT 5SM VV007 04/04 A2993 RMK AO1 SLP153
SPECI CYNL 130435Z AUTO 03007KT 7SM FEW007 BKN023 04/04 A2993 RMK AO1 SLP153
SPECI CYNL 130434Z AUTO 03007KT 7SM VV014 04/04 A2993 RMK AO1 SLP153
SPECI CYNL 130430Z AUTO 03009KT 9SM VV023 04/04 A2993 RMK AO1 SLP153
SPECI CYNL 130426Z AUTO 03007KT 9SM VV025 05/04 A2993 RMK AO1 SLP153
SPECI CYNL 130410Z AUTO 03008KT 4SM FEW007 SCT015 BKN020 05/04 A2993 RMK AO1 SLP152
SPECI CYNL 130406Z AUTO 04007KT 3SM VV020 05/04 A2993 RMK AO1 SLP152
METAR CYNL 130400Z AUTO 03007KT 2SM VV017 05/04 A2993 RMK AO1 SLP152
SPECI CYNL 130350Z AUTO 03008KT 2 1/2SM VV017 05/04 A2993 RMK AO1 SLP151
SPECI CYNL 130328Z AUTO 03008KT 3SM VV024 05/04 A2992 RMK AO1 SLP150
SPECI CYNL 130326Z AUTO 03008KT 3SM VV025 05/04 A2992 RMK AO1 SLP149
SPECI CYNL 130311Z AUTO 03008KT 3SM SCT014 OVC020 05/04 A2992 RMK AO1 SLP147
SPECI CYNL 130305Z AUTO 03009KT 2 1/2SM SCT014 OVC019 05/04 A2991 RMK AO1 SLP146
SPECI CYNL 130304Z AUTO 03008KT 2 1/2SM BKN014 OVC019 05/04 A2991 RMK AO1 SLP146
SPECI CYNL 130303Z AUTO 03007KT 2 1/2SM SCT014 OVC019 05/04 A2991 RMK AO1 SLP146
METAR CYNL 130300Z AUTO 03008KT 2SM BKN014 OVC018 05/05 A2991 RMK AO1 SLP146
SPECI CYNL 130259Z AUTO 03007KT 2SM BKN014 OVC018 05/05 A2991 RMK AO1 SLP146
SPECI CYNL 130251Z AUTO 03008KT 1 1/2SM OVC014 05/05 A2991 RMK AO1 SLP145
SPECI CYNL 130249Z AUTO 03007KT 1 1/4SM OVC013 05/05 A2991 RMK AO1 SLP145
SPECI CYNL 130247Z AUTO 03007KT 1 1/4SM VV015 05/05 A2991 RMK AO1 SLP145
SPECI CYNL 130238Z AUTO 03007KT 1 1/4SM VV013 05/05 A2991 RMK AO1 SLP144
SPECI CYNL 130232Z AUTO 02007KT 1 1/2SM VV012 05/05 A2990 RMK AO1 SLP143
SPECI CYNL 130228Z AUTO 03006KT 1 1/4SM VV012 05/05 A2990 RMK AO1 SLP143
SPECI CYNL 130226Z AUTO 02006KT 1 1/2SM VV012 05/05 A2990 RMK AO1 SLP143
SPECI CYNL 130205Z AUTO 02005KT 1 1/4SM SCT007 OVC011 05/05 A2990 RMK AO1 SLP142
SPECI CYNL 130203Z AUTO 03006KT 1 3/4SM SCT007 BKN010 OVC012 05/05 A2990 RMK AO1 SLP142
METAR CYNL 130200Z AUTO 03006KT 2 1/2SM SCT007 OVC010 05/05 A2990 RMK AO1 SLP141
SPECI CYNL 130157Z AUTO 03006KT 5SM SCT007 OVC010 05/05 A2990 RMK AO1 SLP141
SPECI CYNL 130145Z AUTO 03007KT 6SM BKN007 OVC010 05/05 A2990 RMK AO1 SLP141
SPECI CYNL 130130Z AUTO 02006KT 9SM FEW007 BKN010 OVC012 05/05 A2989 RMK AO1 SLP139
METAR CYNL 130100Z AUTO 05006KT 9SM OVC011 06/04 A2989 RMK AO1 SLP137
SPECI CYNL 130057Z AUTO 05006KT 9SM SCT009 OVC011 06/04 A2989 RMK AO1 SLP137
SPECI CYNL 130051Z AUTO 05006KT 9SM OVC010 06/04 A2989 RMK AO1 SLP137
METAR CYNL 130000Z AUTO 07008KT 8SM BKN007 OVC010 06/05 A2987 RMK AO1 SLP131
METAR CYNL 122300Z AUTO 07009KT 4SM OVC006 06/05 A2985 RMK AO1 SLP126
SPECI CYNL 122251Z AUTO 05008KT 3SM BKN006 OVC011 06/05 A2986 RMK AO1 SLP127
SPECI CYNL 122250Z AUTO 05007KT 2SM BKN006 OVC011 06/05 A2986 RMK AO1 SLP127
SPECI CYNL 122248Z AUTO 05008KT 1 3/4SM BKN006 OVC010 06/05 A2985 RMK AO1 SLP127
SPECI CYNL 122247Z AUTO 05008KT 2 1/2SM BKN006 OVC010 06/05 A2985 RMK AO1 SLP126
SPECI CYNL 122221Z AUTO 05010KT 3SM SCT006 BKN009 OVC011 06/05 A2985 RMK AO1 SLP126
SPECI CYNL 122218Z AUTO 05009KT 2SM SCT006 BKN009 OVC011 06/05 A2985 RMK AO1 SLP125
SPECI CYNL 122217Z AUTO 06010KT 2 1/2SM SCT007 OVC011 06/05 A2985 RMK AO1 SLP125
SPECI CYNL 122214Z AUTO 05008KT 2 1/2SM SCT007 BKN009 OVC011 06/05 A2985 RMK AO1 SLP124
SPECI CYNL 122213Z AUTO 05008KT 3SM SCT007 BKN009 OVC011 06/05 A2985 RMK AO1 SLP124
SPECI CYNL 122206Z AUTO 06009KT 6SM SCT006 OVC011 06/05 A2984 RMK AO1 SLP122
SPECI CYNL 122202Z AUTO 06009KT 6SM SCT006 BKN009 BKN011 06/05 A2984 RMK AO1 SLP122
METAR CYNL 122200Z AUTO 06008KT 9SM SCT006 BKN010 OVC016 06/05 A2984 RMK AO1 SLP123
SPECI CYNL 122149Z AUTO 05009KT 4SM BKN006 OVC010 06/05 A2984 RMK AO1 PRESRR SLP123
SPECI CYNL 122148Z AUTO 05009KT 3SM SCT006 OVC010 06/05 A2984 RMK AO1 PRESRR SLP123
SPECI CYNL 122139Z AUTO 05010KT 2SM SCT005 BKN008 OVC010 06/05 A2984 RMK AO1 PRESRR SLP122
SPECI CYNL 122132Z AUTO 05008KT 1 1/2SM SCT005 BKN008 OVC010 06/06 A2984 RMK AO1 PRESRR SLP120
SPECI CYNL 122131Z AUTO 05008KT 1 1/4SM SCT005 BKN008 OVC010 06/06 A2983 RMK AO1 PRESRR SLP120
SPECI CYNL 122130Z AUTO 05008KT 1 1/2SM SCT005 OVC010 06/06 A2983 RMK AO1 PRESRR SLP119
SPECI CYNL 122128Z AUTO 05006KT 1 3/4SM VV009 06/06 A2983 RMK AO1 PRESRR SLP120
SPECI CYNL 122127Z AUTO 05006KT 2SM VV009 06/06 A2984 RMK AO1 PRESRR SLP120
SPECI CYNL 122125Z AUTO 06006KT 2SM VV010 06/06 A2984 RMK AO1 PRESRR SLP120
SPECI CYNL 122123Z AUTO 06008KT 1 1/2SM VV009 06/06 A2983 RMK AO1 PRESRR SLP120
SPECI CYNL 122121Z AUTO 06009KT 1 3/4SM SCT006 OVC010 06/05 A2983 RMK AO1 PRESRR SLP119
SPECI CYNL 122118Z AUTO 05009KT 1 1/2SM SCT006 OVC009 06/05 A2983 RMK AO1 PRESRR SLP119
SPECI CYNL 122116Z AUTO 05008KT 1 1/2SM SCT006 OVC010 06/05 A2983 RMK AO1 PRESRR SLP118
SPECI CYNL 122115Z AUTO 05010KT 1 1/2SM FEW005 SCT007 OVC009 06/05 A2983 RMK AO1 PRESRR SLP118
SPECI CYNL 122111Z AUTO 06010KT 1 1/4SM VV008 06/05 A2983 RMK AO1 PRESRR SLP118
SPECI CYNL 122110Z AUTO 06010KT 1 1/2SM VV008 06/05 A2983 RMK AO1 PRESRR SLP118
SPECI CYNL 122104Z AUTO 05007KT 1SM VV008 06/06 A2983 RMK AO1 PRESRR SLP118
METAR CYNL 122100Z AUTO 04009KT 3/4SM VV007 06/06 A2983 RMK AO1 PRESRR SLP118
SPECI CYNL 122051Z AUTO 03009KT 3/4SM VV007 06/05 A2983 RMK AO1 SLP117
SPECI CYNL 122047Z AUTO 04009KT 5/8SM VV008 06/05 A2983 RMK AO1 SLP116
SPECI CYNL 122039Z AUTO 03009KT 3/4SM VV006 06/05 A2982 RMK AO1 SLP115
SPECI CYNL 122034Z AUTO 03007KT 1SM VV006 06/06 A2982 RMK AO1 SLP115
SPECI CYNL 122029Z AUTO 05007KT 3/4SM VV007 06/06 A2982 RMK AO1 SLP114
SPECI CYNL 122027Z AUTO 05009KT 5/8SM VV006 06/06 A2982 RMK AO1 SLP113
SPECI CYNL 122026Z AUTO 05009KT 3/4SM VV006 06/06 A2982 RMK AO1 SLP113
SPECI CYNL 122021Z AUTO 03008KT 1 1/4SM VV005 06/06 A2981 RMK AO1 SLP111
SPECI CYNL 122015Z AUTO 06006KT 1 1/2SM VV008 06/06 A2981 RMK AO1 SLP111
SPECI CYNL 122012Z AUTO 06007KT 1 1/4SM VV009 06/06 A2981 RMK AO1 SLP110
SPECI CYNL 122010Z AUTO 06008KT 1 1/2SM VV008 06/06 A2981 RMK AO1 SLP110
SPECI CYNL 122008Z AUTO 06009KT 1 1/4SM VV007 06/06 A2981 RMK AO1 SLP109
SPECI CYNL 122006Z AUTO 06007KT 1 3/4SM SCT006 BKN009 BKN013 07/06 A2981 RMK AO1 SLP109
SPECI CYNL 122005Z AUTO 06005KT 1 1/2SM FEW006 SCT009 BKN013 07/06 A2981 RMK AO1 SLP109
SPECI CYNL 122003Z AUTO 06008KT 1 1/4SM SCT006 BKN013 OVC023 07/06 A2981 RMK AO1 SLP109
SPECI CYNL 122002Z AUTO 06007KT 1 3/4SM FEW006 SCT009 BKN013 07/06 A2981 RMK AO1 SLP109
METAR CYNL 122000Z AUTO 08006KT 6SM SCT008 BKN014 OVC023 07/06 A2981 RMK AO1 SLP109
SPECI CYNL 121955Z AUTO 09007KT 3SM FEW007 BKN012 BKN016 06/06 A2981 RMK AO1 PRESRR SLP108
SPECI CYNL 121954Z AUTO 08006KT 2 1/2SM FEW007 BKN012 BKN016 06/06 A2981 RMK AO1 PRESRR SLP108
SPECI CYNL 121952Z AUTO 07007KT 2 1/2SM FEW006 SCT012 BKN016 06/06 A2981 RMK AO1 PRESRR SLP108
SPECI CYNL 121951Z AUTO 08007KT 2SM FEW006 BKN013 OVC022 06/06 A2981 RMK AO1 PRESRR SLP108
SPECI CYNL 121949Z AUTO 08006KT 1 1/2SM FEW007 BKN013 OVC022 07/06 A2980 RMK AO1 PRESRR SLP107
SPECI CYNL 121948Z AUTO 09005KT 1 3/4SM FEW007 SCT012 BKN017 07/06 A2980 RMK AO1 PRESRR SLP107
SPECI CYNL 121946Z AUTO 09005KT 2 1/2SM VV015 07/06 A2980 RMK AO1 PRESRR SLP107
SPECI CYNL 121945Z AUTO 08005KT 2 1/2SM VV014 07/06 A2980 RMK AO1 PRESRR SLP107
SPECI CYNL 121944Z AUTO 08005KT 3SM VV014 07/06 A2980 RMK AO1 PRESRR SLP106
SPECI CYNL 121937Z AUTO 09003KT 3SM VV016 06/06 A2980 RMK AO1 PRESRR SLP106
SPECI CYNL 121924Z AUTO 10006KT 2 1/2SM VV020 06/05 A2979 RMK AO1 PRESRR SLP104
SPECI CYNL 121923Z AUTO 10006KT 3SM VV020 06/05 A2979 RMK AO1 PRESRR SLP103
SPECI CYNL 121920Z AUTO 08005KT 3SM SCT007 BKN011 OVC020 06/05 A2979 RMK AO1 PRESRR SLP103
SPECI CYNL 121919Z AUTO 09005KT 3SM BKN007 OVC020 06/05 A2979 RMK AO1 PRESRR SLP103
SPECI CYNL 121916Z AUTO 11005KT 2 1/2SM SCT007 BKN010 BKN013 06/06 A2979 RMK AO1 PRESRR SLP103
SPECI CYNL 121913Z AUTO 09004KT 3SM SCT007 BKN010 BKN014 06/06 A2979 RMK AO1 PRESRR SLP103
METAR CYNL 121900Z AUTO 09006KT 3SM SCT006 BKN009 OVC014 06/05 A2979 RMK AO1 PRESRR SLP102
SPECI CYNL 121856Z AUTO 09006KT 2 1/2SM FEW006 BKN010 OVC014 06/05 A2979 RMK AO1 SLP101
SPECI CYNL 121846Z AUTO 08008KT 3SM SCT006 BKN010 OVC014 06/05 A2978 RMK AO1 SLP101
SPECI CYNL 121845Z AUTO 07007KT 3SM SCT006 BKN009 BKN012 06/05 A2978 RMK AO1 SLP101
SPECI CYNL 121844Z AUTO 07007KT 3SM SCT006 BKN010 OVC012 06/05 A2978 RMK AO1 SLP101
SPECI CYNL 121839Z AUTO 08006KT 2SM FEW007 BKN010 OVC014 06/06 A2978 RMK AO1 SLP100
SPECI CYNL 121836Z AUTO 07007KT 1 3/4SM FEW007 BKN010 OVC014 06/05 A2978 RMK AO1 SLP100
SPECI CYNL 121832Z AUTO 09006KT 2 1/2SM FEW007 BKN010 OVC014 06/05 A2978 RMK AO1 SLP099
SPECI CYNL 121804Z AUTO 08006KT 3SM SCT006 BKN010 OVC014 06/05 A2977 RMK AO1 SLP096
SPECI CYNL 121801Z AUTO 09006KT 3SM BKN006 BKN012 OVC015 06/05 A2977 RMK AO1 SLP095
METAR CYNL 121800Z AUTO 09006KT 3SM SCT006 BKN010 BKN012 06/05 A2977 RMK AO1 SLP095
SPECI CYNL 121759Z AUTO 10007KT 3SM SCT006 BKN010 BKN012 06/05 A2976 RMK AO1 SLP095
SPECI CYNL 121749Z AUTO 09007KT 3SM SCT006 BKN007 OVC010 06/05 A2976 RMK AO1 SLP093
SPECI CYNL 121746Z AUTO 09007KT 4SM SCT006 OVC010 06/05 A2976 RMK AO1 SLP093
SPECI CYNL 121723Z AUTO 09008KT 3SM SCT006 BKN008 BKN011 05/05 A2976 RMK AO1 SLP092
SPECI CYNL 121711Z AUTO 09007KT 2 1/2SM SCT005 BKN007 OVC014 05/05 A2976 RMK AO1 SLP092
SPECI CYNL 121709Z AUTO 09005KT 3SM FEW005 BKN007 OVC013 05/05 A2976 RMK AO1 SLP092
SPECI CYNL 121704Z AUTO 10007KT 2 1/2SM SCT006 BKN010 OVC014 05/05 A2975 RMK AO1 SLP091
SPECI CYNL 121702Z AUTO 09006KT 2SM SCT006 BKN008 OVC012 05/05 A2975 RMK AO1 SLP091
METAR CYNL 121700Z AUTO 09007KT 1 3/4SM SCT006 BKN008 OVC012 05/05 A2975 RMK AO1 SLP091
SPECI CYNL 121655Z AUTO 09005KT 1 3/4SM VV008 05/05 A2975 RMK AO1 SLP092
SPECI CYNL 121654Z AUTO 09005KT 1 3/4SM VV010 05/05 A2975 RMK AO1 SLP092
SPECI CYNL 121652Z AUTO 09006KT 2SM VV010 05/05 A2975 RMK AO1 SLP092
SPECI CYNL 121648Z AUTO 08007KT 1 1/2SM VV011 05/05 A2975 RMK AO1 SLP093
SPECI CYNL 121642Z AUTO 09009KT 1 1/4SM VV010 05/04 A2976 RMK AO1 SLP093
SPECI CYNL 121640Z AUTO 08009KT 1 1/4SM BKN006 BKN011 OVC022 05/05 A2976 RMK AO1 SLP093
SPECI CYNL 121638Z AUTO 09008KT 1 3/4SM SCT006 BKN008 OVC019 05/05 A2976 RMK AO1 SLP093
SPECI CYNL 121634Z AUTO 09007KT 2 1/2SM SCT006 BKN009 BKN016 05/05 A2976 RMK AO1 SLP093
SPECI CYNL 121632Z AUTO 10008KT 3SM SCT006 BKN009 BKN016 05/05 A2975 RMK AO1 SLP092
SPECI CYNL 121630Z AUTO 10007KT 4SM SCT006 BKN016 OVC022 05/05 A2975 RMK AO1 SLP092
SPECI CYNL 121625Z AUTO 10008KT 4SM VV015 05/05 A2975 RMK AO1 SLP093
SPECI CYNL 121624Z AUTO 09008KT 3SM VV013 05/05 A2976 RMK AO1 SLP093
SPECI CYNL 121622Z AUTO 09009KT 2 1/2SM VV011 05/04 A2976 RMK AO1 SLP093
SPECI CYNL 121619Z AUTO 09008KT 2SM VV009 05/05 A2976 RMK AO1 SLP094
SPECI CYNL 121615Z AUTO 09008KT 1 3/4SM VV014 05/04 A2976 RMK AO1 SLP094
SPECI CYNL 121612Z AUTO 08007KT 1 1/2SM VV015 05/04 A2976 RMK AO1 SLP094
SPECI CYNL 121610Z AUTO 08008KT 1 1/4SM VV015 05/04 A2976 RMK AO1 SLP094
SPECI CYNL 121603Z AUTO 07007KT 1 3/4SM VV016 05/04 A2975 RMK AO1 SLP093
SPECI CYNL 121601Z AUTO 08008KT 2SM VV015 05/04 A2975 RMK AO1 SLP092
METAR CYNL 121600Z AUTO 08008KT 2SM VV013 05/04 A2975 RMK AO1 SLP092
SPECI CYNL 121556Z AUTO 09006KT 2SM FEW005 SCT007 BKN013 05/05 A2975 RMK AO1 SLP092
SPECI CYNL 121552Z AUTO 08006KT 1 3/4SM SCT007 BKN013 OVC018 05/04 A2976 RMK AO1 SLP093
SPECI CYNL 121548Z AUTO 08005KT 2SM FEW007 BKN013 OVC018 05/04 A2976 RMK AO1 SLP094
SPECI CYNL 121546Z AUTO 06004KT 1 3/4SM FEW007 BKN013 OVC018 05/04 A2976 RMK AO1 SLP095
SPECI CYNL 121542Z AUTO 06005KT 2SM FEW007 SCT013 OVC018 05/04 A2976 RMK AO1 SLP095
SPECI CYNL 121538Z AUTO 07004KT 1 1/2SM FEW009 OVC018 05/04 A2976 RMK AO1 SLP093
SPECI CYNL 121536Z AUTO 07005KT 1 3/4SM VV016 05/04 A2975 RMK AO1 SLP092
SPECI CYNL 121527Z AUTO 08005KT 2 1/2SM VV018 05/04 A2975 RMK AO1 SLP090
METAR CYNL 121500Z AUTO 09007KT 9SM BKN022 OVC031 05/04 A2974 RMK AO1 SLP087
SPECI CYNL 121454Z AUTO 09006KT 9SM BKN022 OVC032 05/04 A2974 RMK AO1 SLP089
METAR CYNL 121400Z AUTO 10006KT 9SM OVC035 04/03 A2974 RMK AO1 SLP089
SPECI CYNL 121301Z AUTO 11005KT 9SM SCT014 OVC034 04/04 A2975 RMK AO1 SLP090
METAR CYNL 121300Z AUTO 10005KT 9SM SCT014 BKN023 OVC034 04/04 A2975 RMK AO1 SLP090
SPECI CYNL 121259Z AUTO 10004KT 8SM SCT014 BKN018 OVC034 04/04 A2975 RMK AO1 SLP089
SPECI CYNL 121220Z AUTO 11004KT 9SM BKN014 OVC039 04/04 A2975 RMK AO1 SLP089
SPECI CYNL 121218Z AUTO 11003KT 9SM SCT014 BKN016 OVC039 04/04 A2975 RMK AO1 SLP089
SPECI CYNL 121217Z AUTO 11003KT 9SM BKN014 OVC039 04/04 A2975 RMK AO1 SLP089
METAR CYNL 121200Z AUTO 09004KT 9SM BKN039 04/04 A2974 RMK AO1 SLP086
SPECI CYNL 121126Z AUTO 07003KT 9SM SCT014 BKN041 04/03 A2975 RMK AO1 SLP089
SPECI CYNL 121122Z AUTO 06003KT 9SM BKN014 BKN041 04/03 A2975 RMK AO1 SLP088
SPECI CYNL 121119Z AUTO 06004KT 8SM SCT013 BKN016 OVC041 04/03 A2975 RMK AO1 SLP087
SPECI CYNL 121116Z AUTO 06004KT 9SM BKN014 OVC041 04/03 A2974 RMK AO1 SLP086
SPECI CYNL 121112Z AUTO 07004KT 8SM BKN015 BKN041 04/03 A2974 RMK AO1 SLP086
METAR CYNL 121100Z AUTO 06004KT 5SM FEW017 BKN041 04/03 A2975 RMK AO1 SLP087
METAR CYNL 121000Z AUTO 07006KT 7SM OVC040 04/02 A2974 RMK AO1 SLP086
METAR CYNL 120900Z AUTO 07006KT 9SM OVC041 04/01 A2976 RMK AO1 SLP090
SPECI CYNL 120822Z AUTO 06006KT 6SM FEW008 SCT045 05/02 A2975 RMK AO1 SLP088
METAR CYNL 120800Z AUTO 05004KT 9SM BKN046 BKN066 05/02 A2976 RMK AO1 SLP091
METAR CYNL 120700Z AUTO 04006KT 9SM BKN056 05/02 A2976 RMK AO1 PRESFR SLP092
METAR CYNL 120600Z AUTO 02005KT 9SM SCT064 05/02 A2978 RMK AO1 SLP100
METAR CYNL 120500Z AUTO 01002KT 9SM BKN070 04/02 A2979 RMK AO1 SLP103
METAR CYNL 120400Z AUTO 00000KT 9SM CLR 04/02 A2980 RMK AO1 SLP106
METAR CYNL 120300Z AUTO 02005KT 9SM CLR 04/01 A2978 RMK AO1 SLP103
METAR CYNL 120200Z AUTO 33002KT 9SM CLR 06/02 A2979 RMK AO1 SLP106
SPECI CYNL 120130Z AUTO 32005KT 9SM SCT027 07/02 A2979 RMK AO1 SLP105
METAR CYNL 120100Z AUTO 32006KT 9SM OVC026 07/02 A2980 RMK AO1 SLP107
METAR CYNL 120000Z AUTO 32004KT 9SM OVC027 08/02 A2980 RMK AO1 SLP108
SPECI CYNL 112314Z AUTO 30006KT 9SM OVC025 08/02 A2980 RMK AO1 SLP107
METAR CYNL 112300Z AUTO 32009KT 9SM OVC024 08/03 A2980 RMK AO1 SLP106
SPECI CYNL 112227Z AUTO 30010G17KT 9SM OVC024 08/03 A2980 RMK AO1 SLP107
SPECI CYNL 112213Z AUTO 29010KT 9SM OVC025 08/03 A2980 RMK AO1 SLP106
SPECI CYNL 112206Z AUTO 29009G16KT 9SM OVC024 08/03 A2980 RMK AO1 SLP105
SPECI CYNL 112203Z AUTO 30011G16KT 9SM SCT021 OVC026 08/02 A2980 RMK AO1 SLP105
SPECI CYNL 112202Z AUTO 30010G16KT 9SM OVC024 08/03 A2979 RMK AO1 SLP105
METAR CYNL 112200Z AUTO 29011KT 9SM SCT021 BKN026 08/03 A2979 RMK AO1 SLP104
SPECI CYNL 112159Z AUTO 30011KT 9SM SCT021 BKN026 08/02 A2979 RMK AO1 SLP104
SPECI CYNL 112158Z AUTO 30010G16KT 9SM BKN022 08/02 A2979 RMK AO1 SLP104
SPECI CYNL 112157Z AUTO 31010G16KT 9SM SCT021 BKN027 08/02 A2979 RMK AO1 SLP104
METAR CYNL 112100Z AUTO 30009G17KT 9SM OVC024 08/03 A2979 RMK AO1 SLP101
SPECI CYNL 112033Z AUTO 29011KT 9SM BKN022 08/03 A2978 RMK AO1 SLP100
SPECI CYNL 112026Z AUTO 30008G19KT 9SM SCT022 BKN030 08/03 A2979 RMK AO1 SLP100
SPECI CYNL 112002Z AUTO 29008G18KT 9SM BKN024 OVC032 08/03 A2978 RMK AO1 SLP097
METAR CYNL 112000Z AUTO 30010G18KT 9SM BKN025 OVC033 08/02 A2978 RMK AO1 SLP097
SPECI CYNL 111951Z AUTO 30011G20KT 9SM BKN025 BKN032 08/02 A2977 RMK AO1 SLP095
SPECI CYNL 111940Z AUTO 31009G22KT 9SM BKN024 08/02 A2977 RMK AO1 SLP094
SPECI CYNL 111936Z AUTO 31011G22KT 9SM BKN025 08/02 A2977 RMK AO1 SLP094
SPECI CYNL 111918Z AUTO 29013G21KT 9SM BKN024 OVC030 07/02 A2976 RMK AO1 SLP092
SPECI CYNL 111904Z AUTO 31011G20KT 9SM BKN025 08/02 A2976 RMK AO1 SLP090
METAR CYNL 111900Z AUTO 29014G20KT 9SM BKN024 07/02 A2975 RMK AO1 SLP089
SPECI CYNL 111844Z AUTO 29011G17KT 9SM BKN021 07/03 A2975 RMK AO1 SLP087
SPECI CYNL 111838Z AUTO 29012G20KT 9SM SCT018 BKN025 07/02 A2975 RMK AO1 SLP087
METAR CYNL 111800Z AUTO 28013G21KT 7SM FEW014 BKN018 BKN026 06/03 A2975 RMK AO1 SLP088
SPECI CYNL 111753Z AUTO 29011G21KT 9SM BKN018 07/02 A2975 RMK AO1 SLP085
SPECI CYNL 111744Z AUTO 29012G19KT 9SM SCT018 BKN026 06/02 A2975 RMK AO1 SLP085
SPECI CYNL 111713Z AUTO 28012G21KT 9SM FEW015 SCT022 BKN190 06/02 A2975 RMK AO1 SLP084
SPECI CYNL 111711Z AUTO 28012G21KT 9SM FEW011 SCT022 BKN027 06/02 A2974 RMK AO1 SLP084
SPECI CYNL 111706Z AUTO 27012G18KT 9SM FEW013 BKN021 06/03 A2974 RMK AO1 SLP083
SPECI CYNL 111704Z AUTO 28011G17KT 9SM FEW013 SCT021 BKN026 06/02 A2974 RMK AO1 SLP084
SPECI CYNL 111701Z AUTO 28009G16KT 9SM FEW013 BKN021 06/02 A2974 RMK AO1 SLP083
METAR CYNL 111700Z AUTO 29010G21KT 9SM FEW013 SCT022 BKN026 06/02 A2974 RMK AO1 SLP083
SPECI CYNL 111650Z AUTO 29013G21KT 9SM SCT013 BKN020 05/02 A2974 RMK AO1 SLP085
SPECI CYNL 111648Z AUTO 28010G20KT 9SM BKN013 BKN031 05/03 A2974 RMK AO1 SLP085
METAR CYNL 111600Z AUTO 30010G22KT 9SM BKN015 04/02 A2974 RMK AO1 SLP083
METAR CYNL 111500Z AUTO 29010G19KT 9SM SCT012 BKN016 04/02 A2972 RMK AO1 SLP078
SPECI CYNL 111448Z AUTO 29008G20KT 6SM SCT011 BKN016 04/02 A2972 RMK AO1 SLP076
SPECI CYNL 111442Z AUTO 30012G20KT 9SM SCT011 BKN014 BKN017 04/01 A2972 RMK AO1 SLP076
SPECI CYNL 111441Z AUTO 30010G20KT 8SM SCT012 BKN016 04/01 A2971 RMK AO1 SLP076
METAR CYNL 111400Z AUTO 28012G20KT 9SM OVC013 03/01 A2970 RMK AO1 SLP072
METAR CYNL 111300Z AUTO 29011G17KT 9SM OVC013 03/01 A2969 RMK AO1 PRESRR SLP067
METAR CYNL 111200Z AUTO 29012G23KT 9SM OVC013 03/01 A2967 RMK AO1 PRESRR SLP060
SPECI CYNL 111109Z AUTO 30015G24KT 9SM BKN012 BKN016 03/01 A2964 RMK AO1 PRESRR SLP052
SPECI CYNL 111108Z AUTO 30014G24KT 9SM SCT012 BKN016 03/01 A2964 RMK AO1 PRESRR SLP052
METAR CYNL 111100Z AUTO 30013G20KT 9SM BKN012 BKN017 03/01 A2964 RMK AO1 PRESRR SLP049
SPECI CYNL 111015Z AUTO 29015G22KT 9SM BKN014 04/01 A2962 RMK AO1 PRESRR SLP041
SPECI CYNL 111014Z AUTO 29014G19KT 9SM SCT014 BKN020 03/01 A2962 RMK AO1 PRESRR SLP041
METAR CYNL 111000Z AUTO 29014G21KT 9SM FEW015 03/01 A2962 RMK AO1 PRESRR SLP040
SPECI CYNL 110929Z AUTO 29017G33KT 9SM SCT021 04/02 A2961 RMK AO1 PRESRR SLP036
SPECI CYNL 110921Z AUTO 29016G33KT 9SM BKN021 04/02 A2960 RMK AO1 PRESRR SLP034
METAR CYNL 110900Z AUTO 29010G21KT 9SM FEW013 SCT022 BKN031 05/02 A2959 RMK AO1 PRESRR SLP030
SPECI CYNL 110849Z AUTO 29012G22KT 9SM SCT014 05/03 A2958 RMK AO1 PRESRR SLP027
SPECI CYNL 110844Z AUTO 29014G21KT 9SM SCT013 BKN017 05/03 A2958 RMK AO1 PRESRR SLP027
SPECI CYNL 110837Z AUTO 29012G20KT 9SM BKN014 05/03 A2958 RMK AO1 PRESRR SLP025
METAR CYNL 110800Z AUTO 30014G21KT 9SM FEW008 SCT012 BKN019 06/04 A2956 RMK AO1 PRESRR SLP019
SPECI CYNL 110747Z AUTO 29013G20KT 4SM FEW007 SCT012 BKN018 06/05 A2956 RMK AO1 PRESRR SLP018
SPECI CYNL 110743Z AUTO 30010G18KT 9SM FEW007 SCT011 BKN013 06/05 A2956 RMK AO1 PRESRR SLP018
SPECI CYNL 110737Z AUTO 30009G16KT 3SM FEW008 SCT012 BKN018 06/06 A2955 RMK AO1 PRESRR SLP016
SPECI CYNL 110735Z AUTO 29011G17KT 2SM VV013 06/06 A2955 RMK AO1 PRESRR SLP016
SPECI CYNL 110732Z AUTO 30010G20KT 1 3/4SM FEW007 SCT018 BKN025 06/06 A2955 RMK AO1 PRESRR SLP016
SPECI CYNL 110731Z AUTO 29008G20KT 2SM FEW007 SCT018 BKN025 06/06 A2955 RMK AO1 PRESRR SLP016
SPECI CYNL 110729Z AUTO 29009G21KT 2 1/2SM FEW007 SCT018 06/06 A2955 RMK AO1 PRESRR SLP015
SPECI CYNL 110728Z AUTO 29011G22KT 3SM FEW007 SCT018 06/05 A2955 RMK AO1 PRESRR SLP015
SPECI CYNL 110707Z AUTO 29013G19KT 9SM FEW010 SCT013 BKN068 07/05 A2954 RMK AO1 PRESRR SLP011
METAR CYNL 110700Z AUTO 29011G21KT 9SM SCT013 BKN025 07/06 A2954 RMK AO1 PRESRR SLP011
SPECI CYNL 110657Z AUTO 29012G21KT 9SM SCT013 BKN025 07/06 A2954 RMK AO1 SLP012
SPECI CYNL 110655Z AUTO 29010G21KT 9SM FEW009 SCT013 BKN017 07/06 A2954 RMK AO1 SLP012
SPECI CYNL 110650Z AUTO 29011G22KT 5SM FEW006 BKN012 BKN018 07/06 A2954 RMK AO1 SLP012
SPECI CYNL 110649Z AUTO 29010G22KT 3SM VV015 07/06 A2954 RMK AO1 SLP012
SPECI CYNL 110648Z AUTO 29012G22KT 3SM VV014 07/06 A2954 RMK AO1 SLP012
SPECI CYNL 110647Z AUTO 29013G22KT 2 1/2SM VV015 07/06 A2954 RMK AO1 SLP012
SPECI CYNL 110645Z AUTO 29012G22KT 3SM VV014 07/06 A2954 RMK AO1 SLP012
SPECI CYNL 110641Z AUTO 30009G21KT 2 1/2SM FEW006 SCT009 OVC014 07/06 A2954 RMK AO1 SLP011
SPECI CYNL 110638Z AUTO 30013G21KT 2 1/2SM VV014 07/06 A2954 RMK AO1 SLP011
SPECI CYNL 110636Z AUTO 30013G21KT 3SM VV013 07/07 A2953 RMK AO1 SLP010
SPECI CYNL 110635Z AUTO 30014G21KT 2 1/2SM VV013 07/07 A2953 RMK AO1 SLP010